Data for 07/29/2011

Time Sea-Level Adjusted Pressure Absolute Pressure Temperature Relative Humidity Dew Point Precipitation   
(mb) (inHg) (mb) (inHg) (C) (F) (%) (C) (F) (mm) (in)
00:01 1023 30.21 852 25.16 10.7 51.2 76 6.6 43.9 -86.9 -3.421
00:02 1023 30.21 852 25.16 10.6 51.1 76 6.6 43.8 -86.9 -3.421
00:03 1023 30.21 852 25.16 10.7 51.2 76 6.6 43.8 -86.9 -3.421
00:04 1023 30.21 852 25.16 10.7 51.2 75 6.5 43.8 -86.8 -3.417
00:05 1023 30.21 852 25.16 10.8 51.4 75 6.6 43.9 -86.8 -3.417
00:06 1023 30.21 852 25.16 10.7 51.3 75 6.6 43.8 -86.8 -3.417
00:07 1023 30.21 852 25.16 10.6 51.2 76 6.6 43.9 -86.8 -3.417
00:08 1023 30.21 852 25.16 10.5 50.9 77 6.6 43.9 -86.8 -3.417
00:09 1023 30.21 852 25.16 10.3 50.6 77 6.5 43.8 -86.8 -3.417
00:10 1023 30.21 852 25.16 10.3 50.6 77 6.5 43.7 -86.8 -3.417
00:11 1023 30.21 852 25.16 10.4 50.6 77 6.5 43.7 -86.7 -3.413
00:12 1023 30.21 852 25.16 10.3 50.6 77 6.6 43.8 -86.7 -3.413
00:13 1023 30.21 852 25.16 10.3 50.5 78 6.6 43.9 -86.7 -3.413
00:14 1023 30.21 852 25.16 10.2 50.3 78 6.6 43.9 -86.7 -3.413
00:15 1023 30.21 852 25.16 10.2 50.4 78 6.5 43.8 -86.7 -3.413
00:16 1023 30.21 852 25.16 10.2 50.4 78 6.6 43.9 -86.6 -3.409
00:17 1023 30.21 852 25.16 10.1 50.2 78 6.6 43.8 -86.6 -3.409
00:18 1023 30.21 852 25.16 10.1 50.2 79 6.6 43.8 -86.6 -3.409
00:19 1023 30.21 852 25.16 10.1 50.1 79 6.5 43.8 -86.6 -3.409
00:20 1023 30.21 852 25.16 10.2 50.4 78 6.6 43.8 -86.6 -3.409
00:21 1023 30.21 852 25.16 10.2 50.4 78 6.5 43.7 -86.6 -3.409
00:22 1023 30.21 852 25.16 10.3 50.5 77 6.5 43.8 -86.6 -3.409
00:23 1023 30.21 852 25.16 10.3 50.5 78 6.5 43.8 -86.6 -3.409
00:24 1023 30.21 852 25.16 10.3 50.5 78 6.5 43.8 -86.6 -3.409
00:25 1023 30.21 852 25.16 10.4 50.8 77 6.6 43.8 -86.6 -3.409
00:26 1023 30.21 852 25.16 10.6 51 76 6.5 43.8 -86.6 -3.409
00:27 1023 30.21 852 25.16 10.8 51.5 76 6.7 44.1 -86.6 -3.409
00:28 1023 30.21 852 25.16 10.8 51.5 75 6.7 44 -86.7 -3.413
00:29 1023 30.21 852 25.16 11 51.8 74 6.6 43.8 -86.7 -3.413
00:30 1023 30.21 852 25.16 11.3 52.3 73 6.6 43.9 -86.8 -3.417
00:31 1023 30.21 852 25.16 11.3 52.3 74 6.8 44.2 -86.8 -3.417
00:32 1023 30.21 852 25.16 11.2 52.1 74 6.8 44.2 -86.8 -3.417
00:33 1023 30.21 852 25.16 11.1 52 74 6.7 44 -86.8 -3.417
00:34 1023 30.21 852 25.16 11.2 52.2 72 6.5 43.7 -86.9 -3.421
00:35 1023 30.21 852 25.16 11.4 52.4 72 6.5 43.7 -86.9 -3.421
00:36 1023 30.21 852 25.16 11.5 52.6 71 6.5 43.7 -87 -3.425
00:37 1023 30.21 852 25.16 11.5 52.6 71 6.5 43.7 -87 -3.425
00:38 1023 30.21 852 25.16 11.5 52.7 72 6.6 43.9 -87.1 -3.429
00:39 1023 30.21 852 25.16 11.5 52.7 72 6.6 44 -87.1 -3.429
00:40 1023 30.21 852 25.16 11.4 52.6 72 6.6 43.9 -87.1 -3.429
00:41 1023 30.21 852 25.16 11.4 52.6 72 6.6 43.8 -87.2 -3.433
00:42 1023 30.21 852 25.16 11.5 52.7 71 6.4 43.5 -87.2 -3.433
00:43 1023 30.21 852 25.16 11.8 53.2 70 6.5 43.8 -87.3 -3.437
00:44 1023 30.21 852 25.16 11.8 53.3 71 6.7 44.1 -87.3 -3.437
00:45 1023 30.21 852 25.16 11.7 53 72 6.8 44.2 -87.3 -3.437
00:46 1023 30.21 852 25.16 11.6 52.9 73 6.9 44.4 -87.4 -3.441
00:47 1023 30.21 852 25.16 11.6 52.8 73 6.8 44.3 -87.4 -3.441
00:48 1023 30.21 852 25.16 11.5 52.7 72 6.7 44.1 -87.4 -3.441
00:49 1023 30.21 852 25.16 11.5 52.6 73 6.8 44.2 -87.4 -3.441
00:50 1023 30.21 852 25.16 11.4 52.5 73 6.7 44.1 -87.4 -3.441
00:51 1023 30.21 852 25.16 11.3 52.4 73 6.7 44 -87.5 -3.445
00:52 1023 30.21 852 25.16 11.4 52.5 72 6.5 43.7 -87.5 -3.445
00:53 1023 30.21 852 25.16 11.5 52.8 71 6.5 43.7 -87.5 -3.445
00:54 1023 30.21 852 25.16 11.6 52.8 71 6.6 43.9 -87.5 -3.445
00:55 1023 30.21 852 25.16 11.5 52.6 72 6.6 43.9 -87.5 -3.445
00:56 1023 30.21 852 25.16 11.3 52.3 73 6.6 43.8 -87.5 -3.445
00:57 1023 30.21 852 25.16 11.3 52.3 73 6.6 43.9 -87.6 -3.449
00:58 1023 30.21 852 25.16 11.2 52.2 73 6.7 44 -87.6 -3.449
00:59 1023 30.21 852 25.16 11.2 52.1 73 6.5 43.7 -87.6 -3.449
01:00 1023 30.21 852 25.16 11.3 52.3 73 6.6 43.9 -87.6 -3.449
01:01 1023 30.21 852 25.16 11.2 52.2 73 6.6 43.9 -87.6 -3.449
01:02 1023 30.21 852 25.16 11.2 52.1 73 6.5 43.8 -87.6 -3.449
01:03 1023 30.21 852 25.16 11.2 52.1 73 6.6 43.9 -87.6 -3.449
01:04 1023 30.21 852 25.16 11.2 52.2 73 6.6 43.9 -87.6 -3.449
01:05 1023 30.21 852 25.16 11.3 52.3 73 6.7 44 -87.6 -3.449
01:06 1023 30.21 852 25.16 11.2 52.1 74 6.7 44.1 -87.7 -3.453
01:07 1023 30.21 852 25.16 11.1 52 74 6.7 44 -87.7 -3.453
01:08 1023 30.21 852 25.16 11.2 52.1 74 6.7 44.1 -87.7 -3.453
01:09 1023 30.21 852 25.16 11.2 52.1 74 6.8 44.2 -87.7 -3.453
01:10 1023 30.21 852 25.16 11.2 52.1 74 6.7 44 -87.7 -3.453
01:11 1023 30.21 852 25.16 11.3 52.3 73 6.7 44.1 -87.7 -3.453
01:12 1023 30.21 852 25.16 11.3 52.3 73 6.6 43.9 -87.7 -3.453
01:13 1023 30.21 852 25.16 11.3 52.4 72 6.5 43.7 -87.7 -3.453
01:14 1023 30.21 852 25.16 11.4 52.5 72 6.6 43.9 -87.7 -3.453
01:15 1023 30.21 852 25.16 11.3 52.4 72 6.5 43.8 -87.7 -3.453
01:16 1023 30.21 852 25.16 11.3 52.4 73 6.6 43.9 -87.7 -3.453
01:17 1023 30.21 852 25.16 11.2 52.2 73 6.6 43.8 -87.7 -3.453
01:18 1023 30.21 852 25.16 11.2 52.1 73 6.6 43.9 -87.7 -3.453
01:19 1023 30.21 852 25.16 11.2 52.1 72 6.4 43.5 -87.7 -3.453
01:20 1023 30.21 852 25.16 11.2 52.2 72 6.4 43.5 -87.8 -3.457
01:21 1023 30.21 852 25.16 11.3 52.4 72 6.5 43.7 -87.8 -3.457
01:22 1023 30.21 852 25.16 11.3 52.3 72 6.5 43.7 -87.8 -3.457
01:23 1023 30.21 852 25.16 11.2 52.1 72 6.4 43.6 -87.8 -3.457
01:24 1023 30.21 852 25.16 11.1 52 73 6.4 43.5 -87.8 -3.457
01:25 1023 30.21 852 25.16 11 51.9 72 6.3 43.3 -87.8 -3.457
01:26 1023 30.21 852 25.16 11.1 51.9 71 6.1 43 -87.8 -3.457
01:27 1023 30.21 852 25.16 11.2 52.2 71 6.1 43 -87.9 -3.461
01:28 1023 30.21 852 25.16 11.3 52.3 71 6.2 43.2 -87.9 -3.461
01:29 1023 30.21 852 25.16 11.3 52.3 71 6.2 43.2 -87.9 -3.461
01:30 1023 30.21 852 25.16 11.2 52.2 71 6.2 43.1 -87.9 -3.461
01:31 1023 30.21 852 25.16 11.2 52.1 72 6.3 43.4 -87.9 -3.461
01:32 1023 30.21 852 25.16 11.1 51.9 72 6.2 43.2 -87.9 -3.461
01:33 1023 30.21 852 25.16 11 51.8 72 6.2 43.2 -87.9 -3.461
01:34 1023 30.21 852 25.16 10.9 51.6 73 6.2 43.2 -87.9 -3.461
01:35 1023 30.21 852 25.16 10.8 51.5 73 6.1 43 -87.9 -3.461
01:36 1023 30.21 852 25.16 10.8 51.5 73 6.1 43.1 -88 -3.465
01:37 1023 30.21 852 25.16 10.8 51.4 73 6.2 43.1 -88 -3.465
01:38 1023 30.21 852 25.16 10.7 51.3 73 6.1 43 -88 -3.465
01:39 1023 30.21 852 25.16 10.8 51.4 72 6 42.9 -88 -3.465
01:40 1023 30.21 852 25.16 10.8 51.4 72 6 42.8 -88 -3.465
01:41 1023 30.21 852 25.16 10.8 51.5 72 6 42.8 -88 -3.465
01:42 1023 30.21 852 25.16 10.9 51.6 72 6 42.7 -88 -3.465
01:43 1023 30.21 852 25.16 10.9 51.6 72 6 42.9 -88 -3.465
01:44 1023 30.21 852 25.16 10.8 51.5 72 6.1 43 -88 -3.465
01:45 1023 30.21 852 25.16 10.7 51.3 73 6.1 43.1 -88 -3.465
01:46 1023 30.21 852 25.16 10.6 51 73 6 42.9 -88.1 -3.469
01:47 1023 30.21 852 25.16 10.6 51 74 6.1 42.9 -88.1 -3.469
01:48 1023 30.21 852 25.16 10.5 51 74 6.1 42.9 -88.1 -3.469
01:49 1023 30.21 852 25.16 10.5 51 74 6.1 42.9 -88.1 -3.469
01:50 1023 30.21 852 25.16 10.6 51 73 6 42.8 -88.1 -3.469
01:51 1023 30.21 852 25.16 10.6 51 73 6 42.9 -88.1 -3.469
01:52 1023 30.21 852 25.16 10.6 51.1 72 5.9 42.6 -88.1 -3.469
01:53 1023 30.21 852 25.16 10.7 51.2 72 6 42.7 -88.1 -3.469
01:54 1023 30.21 852 25.16 10.7 51.3 72 5.9 42.7 -88.1 -3.469
01:55 1023 30.21 852 25.16 10.7 51.3 73 6 42.8 -88.1 -3.469
01:56 1023 30.21 852 25.16 10.7 51.2 73 6 42.8 -88.1 -3.469
01:57 1023 30.21 852 25.16 10.7 51.2 73 6 42.9 -88.1 -3.469
01:58 1023 30.21 852 25.16 10.6 51.1 73 6.1 42.9 -88.1 -3.469
01:59 1023 30.21 852 25.16 10.6 51 74 6.1 42.9 -88.1 -3.469
02:00 1023 30.21 852 25.16 10.6 51.1 73 6 42.9 -88.1 -3.469
02:01 1023 30.21 852 25.16 10.7 51.3 73 6.2 43.1 -88.1 -3.469
02:02 1023 30.21 852 25.16 10.7 51.2 73 6.1 42.9 -88.1 -3.469
02:03 1023 30.21 852 25.16 10.6 51.1 74 6.2 43.1 -88.1 -3.469
02:04 1023 30.21 852 25.16 10.4 50.7 75 6.2 43.1 -88.1 -3.469
02:05 1023 30.21 852 25.16 10.2 50.4 76 6.1 43 -88.1 -3.469
02:06 1023 30.21 852 25.16 10.1 50.2 75 6 42.7 -88.1 -3.469
02:07 1023 30.21 852 25.16 10.1 50.3 73 5.6 42.1 -88.1 -3.469
02:08 1023 30.21 852 25.16 10.4 50.6 72 5.6 42.1 -88.1 -3.469
02:09 1023 30.21 852 25.16 10.6 51 71 5.6 42.1 -88.1 -3.469
02:10 1023 30.21 852 25.16 10.8 51.4 70 5.5 41.9 -88.1 -3.469
02:11 1023 30.21 852 25.16 11 51.9 68 5.5 41.9 -88.1 -3.469
02:12 1023 30.21 852 25.16 11.3 52.4 68 5.6 42.2 -88.2 -3.472
02:13 1023 30.21 852 25.16 11.4 52.4 67 5.6 42 -88.2 -3.472
02:14 1023 30.21 852 25.16 11.4 52.5 68 5.7 42.2 -88.2 -3.472
02:15 1023 30.21 852 25.16 11.4 52.5 67 5.5 42 -88.2 -3.472
02:16 1023 30.21 852 25.16 11.4 52.5 67 5.6 42.2 -88.3 -3.476
02:17 1023 30.21 852 25.16 11.4 52.5 68 5.8 42.5 -88.3 -3.476
02:18 1023 30.21 852 25.16 11.1 52.1 69 5.8 42.4 -88.3 -3.476
02:19 1023 30.21 852 25.16 11 51.7 70 5.8 42.5 -88.3 -3.476
02:20 1023 30.21 852 25.16 10.7 51.3 71 5.7 42.3 -88.3 -3.476
02:21 1023 30.21 852 25.16 10.6 51.1 71 5.7 42.2 -88.3 -3.476
02:22 1023 30.21 852 25.16 10.6 51 71 5.6 42 -88.3 -3.476
02:23 1023 30.21 852 25.16 10.7 51.2 70 5.5 41.9 -88.3 -3.476
02:24 1023 30.21 852 25.16 10.8 51.4 70 5.5 42 -88.3 -3.476
02:25 1023 30.21 852 25.16 10.8 51.4 70 5.6 42 -88.3 -3.476
02:26 1023 30.21 852 25.16 10.8 51.4 70 5.5 41.9 -88.3 -3.476
02:27 1023 30.21 852 25.16 10.8 51.4 70 5.5 41.9 -88.4 -3.48
02:28 1023 30.21 852 25.16 10.8 51.4 70 5.5 41.9 -88.4 -3.48
02:29 1023 30.21 852 25.16 10.7 51.3 70 5.6 42.1 -88.4 -3.48
02:30 1023 30.21 852 25.16 10.6 51.1 71 5.6 42.1 -88.4 -3.48
02:31 1023 30.21 852 25.16 10.4 50.7 72 5.5 42 -88.4 -3.48
02:32 1023 30.21 852 25.16 10.3 50.5 73 5.6 42.1 -88.4 -3.48
02:33 1023 30.21 852 25.16 10.2 50.3 73 5.5 41.9 -88.4 -3.48
02:34 1023 30.21 852 25.16 10 50 73 5.4 41.8 -88.4 -3.48
02:35 1023 30.21 852 25.16 9.9 49.7 74 5.4 41.8 -88.4 -3.48
02:36 1023 30.21 852 25.16 9.8 49.6 75 5.6 42 -88.3 -3.476
02:37 1023 30.21 852 25.16 9.7 49.5 75 5.6 42 -88.3 -3.476
02:38 1023 30.21 852 25.16 9.7 49.4 75 5.6 42 -88.3 -3.476
02:39 1023 30.21 852 25.16 9.8 49.6 75 5.6 42 -88.2 -3.472
02:40 1023 30.21 852 25.16 9.9 49.8 75 5.6 42.2 -88.2 -3.472
02:41 1023 30.21 852 25.16 10 50 74 5.6 42.1 -88.2 -3.472
02:42 1023 30.21 852 25.16 10.2 50.3 73 5.5 41.9 -88.2 -3.472
02:43 1023 30.21 852 25.16 10.3 50.6 72 5.5 41.9 -88.2 -3.472
02:44 1023 30.21 852 25.16 10.5 50.8 71 5.5 41.9 -88.2 -3.472
02:45 1023 30.21 852 25.16 10.6 51.1 70 5.4 41.8 -88.2 -3.472
02:46 1023 30.21 852 25.16 10.7 51.2 69 5.3 41.6 -88.2 -3.472
02:47 1023 30.21 852 25.16 10.7 51.2 70 5.4 41.7 -88.2 -3.472
02:48 1023 30.21 852 25.16 10.6 51 70 5.4 41.8 -88.2 -3.472
02:49 1023 30.21 852 25.16 10.5 50.9 71 5.5 41.8 -88.2 -3.472
02:50 1023 30.21 852 25.16 10.6 51 71 5.4 41.8 -88.2 -3.472
02:51 1023 30.21 852 25.16 10.6 51.2 70 5.4 41.8 -88.2 -3.472
02:52 1023 30.21 852 25.16 10.7 51.3 70 5.4 41.8 -88.2 -3.472
02:53 1023 30.21 852 25.16 10.9 51.6 69 5.4 41.7 -88.3 -3.476
02:54 1023 30.21 852 25.16 11 51.9 68 5.4 41.8 -88.3 -3.476
02:55 1023 30.21 852 25.16 11.2 52.1 68 5.5 41.8 -88.3 -3.476
02:56 1023 30.21 852 25.16 11.2 52.2 67 5.4 41.8 -88.3 -3.476
02:57 1023 30.21 852 25.16 11.2 52.2 67 5.4 41.7 -88.4 -3.48
02:58 1023 30.21 852 25.16 11 51.8 68 5.4 41.6 -88.4 -3.48
02:59 1023 30.21 852 25.16 10.7 51.2 69 5.3 41.5 -88.4 -3.48
03:00 1023 30.21 852 25.16 10.3 50.5 72 5.4 41.8 -88.4 -3.48
03:01 1023 30.21 852 25.16 9.8 49.7 73 5.3 41.5 -88.4 -3.48
03:02 1023 30.21 852 25.16 9.4 48.9 74 5.1 41.1 -88.4 -3.48
03:03 1023 30.21 852 25.16 8.9 47.9 77 5.1 41.1 -88.4 -3.48
03:04 1023 30.21 852 25.16 8.5 47.2 79 5.1 41.2 -88.4 -3.48
03:05 1023 30.21 852 25.16 8.3 47 80 5.1 41.2 -88.3 -3.476
03:06 1023 30.21 852 25.16 8.2 46.8 81 5.2 41.3 -88.3 -3.476
03:07 1023 30.21 852 25.16 8.3 46.9 82 5.3 41.6 -88.2 -3.472
03:08 1023 30.21 852 25.16 8.4 47.2 81 5.4 41.6 -88.1 -3.469
03:09 1023 30.21 852 25.16 8.6 47.4 81 5.4 41.8 -88.1 -3.469
03:10 1023 30.21 852 25.16 8.6 47.4 81 5.5 41.8 -88 -3.465
03:11 1023 30.21 852 25.16 8.7 47.6 80 5.4 41.8 -87.9 -3.461
03:12 1023 30.21 852 25.16 8.7 47.6 80 5.5 41.8 -87.9 -3.461
03:13 1023 30.21 852 25.16 8.7 47.6 80 5.4 41.8 -87.9 -3.461
03:14 1023 30.21 852 25.16 8.8 47.8 80 5.5 41.9 -87.9 -3.461
03:15 1023 30.21 852 25.16 8.8 47.8 80 5.5 41.8 -87.9 -3.461
03:16 1023 30.21 852 25.16 8.7 47.7 80 5.4 41.7 -87.8 -3.457
03:17 1023 30.21 852 25.16 8.6 47.5 80 5.4 41.7 -87.8 -3.457
03:18 1023 30.21 852 25.16 8.5 47.2 81 5.3 41.6 -87.8 -3.457
03:19 1023 30.21 852 25.16 8.3 47 81 5.3 41.5 -87.8 -3.457
03:20 1023 30.21 852 25.16 8.2 46.7 82 5.3 41.6 -87.7 -3.453
03:21 1023 30.21 852 25.16 8.1 46.5 83 5.3 41.5 -87.7 -3.453
03:22 1023 30.21 852 25.16 8 46.4 83 5.3 41.5 -87.7 -3.453
03:23 1023 30.21 852 25.16 7.9 46.2 84 5.3 41.5 -87.6 -3.449
03:24 1023 30.21 852 25.16 7.9 46.2 84 5.4 41.6 -87.5 -3.445
03:25 1023 30.21 852 25.16 7.8 46.1 84 5.3 41.5 -87.5 -3.445
03:26 1023 30.21 852 25.16 7.7 45.9 85 5.4 41.7 -87.4 -3.441
03:27 1023 30.21 852 25.16 7.8 46 84 5.2 41.3 -87.4 -3.441
03:28 1023 30.21 852 25.16 7.7 45.9 83 5.1 41.1 -87.3 -3.437
03:29 1023 30.21 852 25.16 7.5 45.4 85 5.1 41.2 -87.3 -3.437
03:30 1023 30.21 852 25.16 7.4 45.2 85 5 41.1 -87.3 -3.437
03:31 1023 30.21 852 25.16 7.2 44.9 85 4.9 40.8 -87.3 -3.437
03:32 1023 30.21 852 25.16 7 44.6 86 4.8 40.7 -87.2 -3.433
03:33 1023 30.21 852 25.16 6.9 44.4 86 4.8 40.6 -87.1 -3.429
03:34 1023 30.21 852 25.16 6.8 44.3 87 4.9 40.7 -87.1 -3.429
03:35 1023 30.21 852 25.16 6.9 44.4 88 5.1 41.1 -87.1 -3.429
03:36 1023 30.21 852 25.16 7.1 44.7 87 5 41 -87 -3.425
03:37 1023 30.21 852 25.16 7.2 44.9 86 5 41 -87 -3.425
03:38 1023 30.21 852 25.16 7.2 44.9 86 5 41 -87 -3.425
03:39 1023 30.21 852 25.16 7.3 45.1 86 5.1 41.2 -87 -3.425
03:40 1023 30.21 852 25.16 7.4 45.3 85 5 41.1 -87 -3.425
03:41 1023 30.21 852 25.16 7.5 45.6 85 5.1 41.2 -87 -3.425
03:42 1023 30.21 852 25.16 7.6 45.7 84 5.1 41.1 -87.1 -3.429
03:43 1023 30.21 852 25.16 7.5 45.6 84 5 41 -87.1 -3.429
03:44 1023 30.21 852 25.16 7.5 45.5 84 5 41.1 -87.1 -3.429
03:45 1023 30.21 852 25.16 7.5 45.5 84 5 41 -87.1 -3.429
03:46 1023 30.21 852 25.16 7.5 45.6 84 5 41 -87.1 -3.429
03:47 1023 30.21 852 25.16 7.4 45.4 84 4.9 40.9 -87.1 -3.429
03:48 1023 30.21 852 25.16 7.3 45.1 84 4.8 40.7 -87.1 -3.429
03:49 1023 30.21 852 25.16 7.1 44.8 85 4.8 40.6 -87.1 -3.429
03:50 1023 30.21 852 25.16 7.3 45.1 85 4.9 40.9 -87.1 -3.429
03:51 1023 30.21 852 25.16 7.4 45.4 84 4.9 40.8 -87.1 -3.429
03:52 1023 30.21 852 25.16 7.6 45.6 82 4.8 40.6 -87.1 -3.429
03:53 1023 30.21 852 25.16 7.5 45.4 83 4.8 40.6 -87.1 -3.429
03:54 1023 30.21 852 25.16 7.6 45.6 83 4.9 40.9 -87.1 -3.429
03:55 1023 30.21 852 25.16 7.8 46.1 81 4.9 40.8 -87.2 -3.433
03:56 1023 30.21 852 25.16 7.9 46.2 81 4.8 40.6 -87.2 -3.433
03:57 1023 30.21 852 25.16 7.8 46 82 4.8 40.7 -87.2 -3.433
03:58 1023 30.21 852 25.16 7.7 45.9 82 4.9 40.7 -87.3 -3.437
03:59 1023 30.21 852 25.16 7.6 45.7 83 4.9 40.9 -87.3 -3.437
04:00 1023 30.21 852 25.16 7.6 45.6 83 4.9 40.8 -87.3 -3.437
04:01 1023 30.21 852 25.16 7.7 45.8 82 4.9 40.7 -87.3 -3.437
04:02 1023 30.21 852 25.16 7.7 45.9 82 4.8 40.6 -87.3 -3.437
04:03 1023 30.21 852 25.16 7.7 45.9 82 4.9 40.7 -87.3 -3.437
04:04 1023 30.21 852 25.16 7.7 45.9 82 4.9 40.9 -87.3 -3.437
04:05 1023 30.21 852 25.16 7.8 46 82 5 40.9 -87.3 -3.437
04:06 1023 30.21 852 25.16 7.9 46.1 82 5 40.9 -87.3 -3.437
04:07 1023 30.21 852 25.16 8 46.5 81 5 41 -87.3 -3.437
04:08 1023 30.21 852 25.16 8.3 46.9 80 5 41 -87.4 -3.441
04:09 1023 30.21 852 25.16 8.4 47.1 80 5.1 41.2 -87.4 -3.441
04:10 1023 30.21 852 25.16 8.5 47.3 79 5.1 41.2 -87.4 -3.441
04:11 1023 30.21 852 25.16 8.6 47.5 79 5.1 41.2 -87.5 -3.445
04:12 1023 30.21 852 25.16 8.7 47.6 78 5.1 41.1 -87.5 -3.445
04:13 1023 30.21 852 25.16 8.9 48.1 77 5.1 41.1 -87.6 -3.449
04:14 1023 30.21 852 25.16 9 48.1 77 5.1 41.3 -87.6 -3.449
04:15 1023 30.21 852 25.16 8.9 48 78 5.2 41.4 -87.7 -3.453
04:16 1023 30.21 852 25.16 8.9 47.9 78 5.3 41.6 -87.8 -3.457
04:17 1023 30.21 852 25.16 8.8 47.8 79 5.4 41.7 -87.8 -3.457
04:18 1023 30.21 852 25.16 8.6 47.5 80 5.3 41.6 -87.8 -3.457
04:19 1023 30.21 852 25.16 8.5 47.2 80 5.2 41.4 -87.8 -3.457
04:20 1023 30.21 852 25.16 8.5 47.2 80 5.2 41.4 -87.8 -3.457
04:21 1023 30.21 852 25.16 8.5 47.2 80 5.2 41.4 -87.8 -3.457
04:22 1023 30.21 852 25.16 8.5 47.2 80 5.2 41.4 -87.8 -3.457
04:23 1023 30.21 852 25.16 8.3 47 81 5.2 41.4 -87.8 -3.457
04:24 1023 30.21 852 25.16 8.2 46.8 81 5.2 41.3 -87.8 -3.457
04:25 1023 30.21 852 25.16 8.1 46.5 82 5.1 41.2 -87.8 -3.457
04:26 1023 30.21 852 25.16 7.9 46.3 83 5.2 41.3 -87.8 -3.457
04:27 1023 30.21 852 25.16 8 46.3 82 5.1 41.2 -87.8 -3.457
04:28 1023 30.21 852 25.16 8 46.3 82 5.1 41.1 -87.8 -3.457
04:29 1023 30.21 852 25.16 8 46.3 81 5 41 -87.8 -3.457
04:30 1023 30.21 852 25.16 8 46.5 81 5 41 -87.7 -3.453
04:31 1023 30.21 852 25.16 8.1 46.7 80 5 40.9 -87.8 -3.457
04:32 1023 30.21 852 25.16 8.2 46.8 80 5 41 -87.8 -3.457
04:33 1023 30.21 852 25.16 8.3 46.9 80 5 41 -87.8 -3.457
04:34 1023 30.21 852 25.16 8.3 46.9 80 5 41 -87.8 -3.457
04:35 1023 30.21 852 25.16 8.3 46.9 79 4.9 40.9 -87.8 -3.457
04:36 1023 30.21 852 25.16 8.3 46.9 79 4.9 40.8 -87.8 -3.457
04:37 1023 30.21 852 25.16 8.3 46.9 79 4.9 40.8 -87.8 -3.457
04:38 1023 30.21 852 25.16 8.4 47 79 4.9 40.8 -87.9 -3.461
04:39 1023 30.21 852 25.16 8.5 47.2 78 4.9 40.7 -87.9 -3.461
04:40 1023 30.21 852 25.16 8.6 47.4 77 4.8 40.7 -87.9 -3.461
04:41 1023 30.21 852 25.16 8.6 47.5 77 4.8 40.7 -88 -3.465
04:42 1023 30.21 852 25.16 8.8 47.8 76 4.8 40.7 -88 -3.465
04:43 1023 30.21 852 25.16 8.9 48 76 4.9 40.8 -88 -3.465
04:44 1023 30.21 852 25.16 9 48.2 75 4.9 40.8 -88.1 -3.469
04:45 1023 30.21 852 25.16 9.3 48.7 74 4.9 40.8 -88.1 -3.469
04:46 1023 30.21 852 25.16 9.6 49.3 72 4.9 40.8 -88.2 -3.472
04:47 1023 30.21 852 25.16 9.7 49.4 73 5 41 -88.2 -3.472
04:48 1023 30.21 852 25.16 9.4 48.8 74 5 41 -88.3 -3.476
04:49 1023 30.21 852 25.16 9 48.3 76 5 41.1 -88.3 -3.476
04:50 1023 30.21 852 25.16 8.9 48 76 5 41 -88.3 -3.476
04:51 1023 30.21 852 25.16 8.8 47.9 77 5 41.1 -88.3 -3.476
04:52 1023 30.21 852 25.16 8.8 47.9 76 4.9 40.9 -88.3 -3.476
04:53 1023 30.21 852 25.16 8.8 47.9 76 4.8 40.7 -88.4 -3.48
04:54 1023 30.21 852 25.16 8.7 47.7 76 4.8 40.6 -88.4 -3.48
04:55 1023 30.21 852 25.16 8.5 47.3 78 4.9 40.8 -88.4 -3.48
04:56 1023 30.21 852 25.16 8.4 47.2 78 4.8 40.7 -88.4 -3.48
04:57 1023 30.21 852 25.16 8.4 47 78 4.7 40.5 -88.4 -3.48
04:58 1023 30.21 852 25.16 8.2 46.8 79 4.8 40.6 -88.4 -3.48
04:59 1023 30.21 852 25.16 8.3 47 78 4.7 40.5 -88.4 -3.48
05:00 1023 30.21 852 25.16 8.4 47.1 78 4.7 40.5 -88.4 -3.48
05:01 1023 30.21 852 25.16 8.6 47.4 77 4.7 40.5 -88.4 -3.48
05:02 1023 30.21 852 25.16 8.8 47.8 76 4.7 40.5 -88.4 -3.48
05:03 1023 30.21 852 25.16 9 48.3 73 4.6 40.2 -88.4 -3.48
05:04 1023 30.21 852 25.16 9.5 49.1 72 4.7 40.5 -88.5 -3.484
05:05 1023 30.21 852 25.16 9.9 49.9 70 4.8 40.7 -88.5 -3.484
05:06 1023 30.21 852 25.16 10.2 50.3 70 4.9 40.8 -88.6 -3.488
05:07 1023 30.21 852 25.16 10.3 50.6 69 5 41 -88.6 -3.488
05:08 1023 30.21 852 25.16 10.4 50.8 69 5 41 -88.7 -3.492
05:09 1023 30.21 852 25.16 10.5 51 68 5 41 -88.8 -3.496
05:10 1023 30.21 852 25.16 10.5 50.9 68 5 41 -88.8 -3.496
05:11 1023 30.21 852 25.16 10.6 51 68 5 41 -88.8 -3.496
05:12 1023 30.21 852 25.16 10.6 51 68 5 41 -88.9 -3.5
05:13 1023 30.21 852 25.16 10.5 50.9 68 5 41 -88.9 -3.5
05:14 1023 30.21 852 25.16 10.5 50.9 69 5 41 -89 -3.504
05:15 1023 30.21 852 25.16 10.4 50.7 69 5.1 41.2 -89 -3.504
05:16 1023 30.21 852 25.16 10.3 50.5 69 5 41 -89 -3.504
05:17 1023 30.21 852 25.16 10.3 50.6 69 4.8 40.7 -89.1 -3.508
05:18 1023 30.21 852 25.16 10.4 50.8 68 4.8 40.7 -89.1 -3.508
05:19 1023 30.21 852 25.16 10.5 50.8 68 4.9 40.9 -89.1 -3.508
05:20 1023 30.21 852 25.16 10.5 50.9 68 4.9 40.8 -89.1 -3.508
05:21 1023 30.21 852 25.16 10.5 50.9 67 4.8 40.6 -89.1 -3.508
05:22 1023 30.21 852 25.16 10.6 51.1 67 4.8 40.6 -89.2 -3.512
05:23 1023 30.21 852 25.16 10.6 51.2 68 4.9 40.9 -89.2 -3.512
05:24 1023 30.21 852 25.16 10.6 51 68 4.9 40.8 -89.2 -3.512
05:25 1023 30.21 852 25.16 10.5 50.8 69 5.1 41.1 -89.2 -3.512
05:26 1023 30.21 852 25.16 10.2 50.4 71 5.2 41.3 -89.2 -3.512
05:27 1023 30.21 852 25.16 9.9 49.9 72 5.2 41.4 -89.2 -3.512
05:28 1023 30.21 852 25.16 9.6 49.3 73 5 41.1 -89.2 -3.512
05:29 1023 30.21 852 25.16 9.4 48.9 74 5 41 -89.2 -3.512
05:30 1023 30.21 852 25.16 9.3 48.7 74 4.9 40.8 -89.2 -3.512
05:31 1023 30.21 852 25.16 9.2 48.6 74 4.8 40.7 -89.2 -3.512
05:32 1023 30.21 852 25.16 9.2 48.5 75 4.9 40.8 -89.2 -3.512
05:33 1023 30.21 852 25.16 9.1 48.3 75 4.9 40.8 -89.2 -3.512
05:34 1023 30.21 852 25.16 9 48.2 75 4.7 40.5 -89.2 -3.512
05:35 1023 30.21 852 25.16 9.1 48.3 74 4.8 40.6 -89.2 -3.512
05:36 1023 30.21 852 25.16 9.1 48.4 74 4.7 40.5 -89.2 -3.512
05:37 1023 30.21 852 25.16 9.3 48.7 73 4.7 40.4 -89.2 -3.512
05:38 1023 30.21 852 25.16 9.4 48.9 72 4.7 40.4 -89.2 -3.512
05:39 1023 30.21 852 25.16 9.5 49 72 4.7 40.5 -89.2 -3.512
05:40 1023 30.21 852 25.16 9.5 49.1 71 4.6 40.3 -89.2 -3.512
05:41 1023 30.21 852 25.16 9.7 49.5 70 4.5 40.1 -89.2 -3.512
05:42 1023 30.21 852 25.16 10 49.9 69 4.7 40.4 -89.2 -3.512
05:43 1023 30.21 852 25.16 10.1 50.1 69 4.7 40.5 -89.2 -3.512
05:44 1023 30.21 852 25.16 10.1 50.1 69 4.8 40.6 -89.3 -3.516
05:45 1023 30.21 852 25.16 10.1 50.1 70 4.8 40.6 -89.3 -3.516
05:46 1023 30.21 852 25.16 10 50.1 70 4.9 40.9 -89.3 -3.516
05:47 1023 30.21 852 25.16 9.9 49.9 71 4.9 40.8 -89.3 -3.516
05:48 1023 30.21 852 25.16 9.8 49.6 71 4.8 40.7 -89.3 -3.516
05:49 1023 30.21 852 25.16 9.7 49.4 73 5 41 -89.3 -3.516
05:50 1023 30.21 852 25.16 9.3 48.7 74 4.9 40.8 -89.3 -3.516
05:51 1023 30.21 852 25.16 9 48.2 75 4.8 40.7 -89.3 -3.516
05:52 1023 30.21 852 25.16 8.9 47.9 76 4.9 40.7 -89.3 -3.516
05:53 1023 30.21 852 25.16 8.6 47.5 77 4.8 40.6 -89.2 -3.512
05:54 1023 30.21 852 25.16 8.4 47.1 78 4.8 40.6 -89.2 -3.512
05:55 1023 30.21 852 25.16 8.3 46.9 78 4.6 40.4 -89.2 -3.512
05:56 1023 30.21 852 25.16 8.4 47 77 4.6 40.3 -89.1 -3.508
05:57 1023 30.21 852 25.16 8.4 47.1 77 4.6 40.2 -89.1 -3.508
05:58 1023 30.21 852 25.16 8.3 47 77 4.6 40.2 -89.1 -3.508
05:59 1023 30.21 852 25.16 8.4 47 77 4.6 40.3 -89.1 -3.508
06:00 1023 30.21 852 25.16 8.3 47 77 4.6 40.3 -89.1 -3.508
06:01 1023 30.21 852 25.16 8.3 46.9 78 4.6 40.3 -89.1 -3.508
06:02 1023 30.21 852 25.16 8.2 46.7 78 4.7 40.4 -89.1 -3.508
06:03 1023 30.21 852 25.16 8.2 46.7 79 4.7 40.4 -89.1 -3.508
06:04 1023 30.21 852 25.16 8.1 46.6 79 4.7 40.4 -89.1 -3.508
06:05 1023 30.21 852 25.16 8.1 46.5 79 4.7 40.4 -89 -3.504
06:06 1023 30.21 852 25.16 8 46.5 79 4.6 40.3 -89 -3.504
06:07 1023 30.21 852 25.16 8.1 46.6 78 4.6 40.2 -89 -3.504
06:08 1023 30.21 852 25.16 8 46.5 79 4.6 40.2 -89 -3.504
06:09 1023 30.21 852 25.16 8 46.3 79 4.6 40.2 -89 -3.504
06:10 1023 30.21 852 25.16 7.9 46.3 79 4.5 40.1 -88.9 -3.5
06:11 1023 30.21 852 25.16 8 46.4 79 4.5 40.1 -88.9 -3.5
06:12 1023 30.21 852 25.16 8 46.4 78 4.5 40.1 -88.9 -3.5
06:13 1023 30.21 852 25.16 8.1 46.6 78 4.6 40.3 -88.9 -3.5
06:14 1023 30.21 852 25.16 8.2 46.7 78 4.6 40.3 -88.9 -3.5
06:15 1023 30.21 852 25.16 8.2 46.8 78 4.7 40.5 -88.9 -3.5
06:16 1023 30.21 852 25.16 8.2 46.7 79 4.7 40.5 -88.9 -3.5
06:17 1023 30.21 852 25.16 8.1 46.5 80 4.8 40.6 -88.9 -3.5
06:18 1023 30.21 852 25.16 8 46.3 80 4.8 40.6 -88.9 -3.5
06:19 1023 30.21 852 25.16 7.9 46.3 80 4.8 40.6 -88.9 -3.5
06:20 1023 30.21 852 25.16 8 46.3 80 4.6 40.4 -88.9 -3.5
06:21 1023 30.21 852 25.16 7.9 46.3 80 4.7 40.4 -88.9 -3.5
06:22 1023 30.21 852 25.16 7.8 46 81 4.7 40.4 -88.9 -3.5
06:23 1023 30.21 852 25.16 7.5 45.6 82 4.6 40.3 -88.9 -3.5
06:24 1023 30.21 852 25.16 7.4 45.2 82 4.5 40.1 -88.9 -3.5
06:25 1023 30.21 852 25.16 7.2 45 83 4.5 40 -88.9 -3.5
06:26 1023 30.21 852 25.16 7.1 44.7 84 4.5 40.1 -88.9 -3.5
06:27 1023 30.21 852 25.16 7 44.5 84 4.5 40.1 -88.8 -3.496
06:28 1023 30.21 852 25.16 6.9 44.4 84 4.5 40.1 -88.8 -3.496
06:29 1023 30.21 852 25.16 7 44.6 84 4.5 40.1 -88.8 -3.496
06:30 1023 30.21 852 25.16 7 44.6 84 4.6 40.2 -88.8 -3.496
06:31 1023 30.21 852 25.16 7 44.6 85 4.6 40.3 -88.8 -3.496
06:32 1023 30.21 852 25.16 7 44.7 85 4.7 40.4 -88.8 -3.496
06:33 1023 30.21 852 25.16 7.1 44.8 84 4.7 40.4 -88.8 -3.496
06:34 1023 30.21 852 25.16 7.3 45.1 83 4.6 40.4 -88.8 -3.496
06:35 1023 30.21 852 25.16 7.5 45.5 82 4.7 40.4 -88.8 -3.496
06:36 1023 30.21 852 25.16 7.7 45.8 82 4.7 40.5 -88.8 -3.496
06:37 1023 30.21 852 25.16 7.7 45.8 82 4.8 40.6 -88.9 -3.5
06:38 1023 30.21 852 25.16 7.6 45.7 82 4.8 40.6 -88.9 -3.5
06:39 1023 30.21 852 25.16 7.6 45.7 82 4.8 40.7 -88.9 -3.5
06:40 1023 30.21 852 25.16 7.7 45.8 82 4.8 40.7 -88.9 -3.5
06:41 1023 30.21 852 25.16 7.7 45.9 82 4.8 40.7 -88.9 -3.5
06:42 1023 30.21 852 25.16 7.7 45.9 82 4.8 40.7 -88.9 -3.5
06:43 1023 30.21 852 25.16 7.7 45.8 82 4.8 40.7 -89 -3.504
06:44 1023 30.21 852 25.16 7.7 45.9 82 4.9 40.8 -89 -3.504
06:45 1023 30.21 852 25.16 7.8 46.1 82 4.9 40.8 -89 -3.504
06:46 1023 30.21 852 25.16 7.9 46.2 82 5 41 -89 -3.504
06:47 1023 30.21 852 25.16 8 46.3 82 5 41.1 -89 -3.504
06:48 1023 30.21 852 25.16 8 46.4 82 5.1 41.2 -89 -3.504
06:49 1023 30.21 852 25.16 8.1 46.6 81 5.1 41.1 -89.1 -3.508
06:50 1023 30.21 852 25.16 8.2 46.7 81 5.1 41.2 -89.1 -3.508
06:51 1023 30.21 852 25.16 8.3 46.9 80 5.1 41.3 -89.1 -3.508
06:52 1023 30.21 852 25.16 8.5 47.2 80 5.2 41.4 -89.1 -3.508
06:53 1023 30.21 852 25.16 8.6 47.6 79 5.2 41.4 -89.1 -3.508
06:54 1023 30.21 852 25.16 8.8 47.8 78 5.3 41.5 -89.2 -3.512
06:55 1023 30.21 852 25.16 9 48.2 77 5.1 41.3 -89.2 -3.512
06:56 1023 30.21 852 25.16 9.1 48.5 77 5.3 41.5 -89.2 -3.512
06:57 1023 30.21 852 25.16 9.3 48.8 76 5.3 41.6 -89.2 -3.512
06:58 1023 30.21 852 25.16 9.5 49 76 5.4 41.7 -89.3 -3.516
06:59 1023 30.21 852 25.16 9.6 49.3 74 5.3 41.5 -89.3 -3.516
07:00 1023 30.21 852 25.16 9.7 49.5 73 5.2 41.4 -89.3 -3.516
07:01 1023 30.21 852 25.16 9.9 49.8 74 5.4 41.8 -89.4 -3.52
07:02 1023 30.21 852 25.16 10 50 73 5.4 41.7 -89.4 -3.52
07:03 1023 30.21 852 25.16 10.1 50.2 72 5.4 41.7 -89.4 -3.52
07:04 1023 30.21 852 25.16 10.2 50.4 72 5.3 41.6 -89.4 -3.52
07:05 1023 30.21 852 25.16 10.3 50.5 71 5.4 41.6 -89.4 -3.52
07:06 1023 30.21 852 25.16 10.4 50.7 71 5.3 41.6 -89.4 -3.52
07:07 1023 30.21 852 25.16 10.5 51 71 5.5 41.8 -89.4 -3.52
07:08 1023 30.21 852 25.16 10.6 51.1 71 5.6 42 -89.4 -3.52
07:09 1023 30.21 852 25.16 10.7 51.3 70 5.5 41.9 -89.5 -3.524
07:10 1023 30.21 852 25.16 10.8 51.5 70 5.6 42.1 -89.5 -3.524
07:11 1023 30.21 852 25.16 10.9 51.6 69 5.5 42 -89.5 -3.524
07:12 1023 30.21 852 25.16 10.9 51.7 69 5.5 42 -89.5 -3.524
07:13 1023 30.21 852 25.16 11 51.8 70 5.8 42.4 -89.5 -3.524
07:14 1023 30.21 852 25.16 11.1 51.9 70 5.8 42.4 -89.5 -3.524
07:15 1023 30.21 852 25.16 11.1 52 69 5.7 42.2 -89.5 -3.524
07:16 1023 30.21 852 25.16 11.1 52.1 69 5.8 42.5 -89.5 -3.524
07:17 1023 30.21 852 25.16 11.2 52.2 70 5.9 42.6 -89.5 -3.524
07:18 1023 30.21 852 25.16 11.2 52.2 70 6.1 42.9 -89.5 -3.524
07:19 1023 30.21 852 25.16 11.3 52.3 69 5.9 42.7 -89.5 -3.524
07:20 1023 30.21 852 25.16 11.4 52.4 69 6 42.8 -89.5 -3.524
07:21 1023 30.21 852 25.16 11.5 52.6 69 6 42.8 -89.5 -3.524
07:22 1023 30.21 852 25.16 11.6 52.8 70 6.3 43.4 -89.5 -3.524
07:23 1023 30.21 852 25.16 11.7 53.1 69 6.3 43.4 -89.5 -3.524
07:24 1023 30.21 853 25.19 11.8 53.2 69 6.3 43.4 -89.5 -3.524
07:25 1023 30.21 852 25.16 11.9 53.4 68 6.2 43.2 -89.5 -3.524
07:26 1023 30.21 852 25.16 12 53.6 67 6.2 43.2 -89.5 -3.524
07:27 1023 30.21 852 25.16 12.1 53.7 66 6 42.8 -89.5 -3.524
07:28 1023 30.21 852 25.16 12.1 53.9 68 6.4 43.5 -89.5 -3.524
07:29 1023 30.21 852 25.16 12.2 53.9 66 6.1 43.1 -89.5 -3.524
07:30 1023 30.21 852 25.16 12.2 54 66 6.2 43.1 -89.5 -3.524
07:31 1023 30.21 852 25.16 12.3 54.1 68 6.6 43.8 -89.5 -3.524
07:32 1023 30.21 852 25.16 12.3 54.1 67 6.4 43.6 -89.5 -3.524
07:33 1023 30.21 852 25.16 12.3 54.2 67 6.4 43.6 -89.4 -3.52
07:34 1023 30.21 852 25.16 12.4 54.2 68 6.6 43.9 -89.4 -3.52
07:35 1023 30.21 852 25.16 12.4 54.3 66 6.4 43.5 -89.4 -3.52
07:36 1023 30.21 852 25.16 12.5 54.5 67 6.7 44 -89.4 -3.52
07:37 1023 30.21 852 25.16 12.6 54.7 69 7 44.6 -89.4 -3.52
07:38 1023 30.21 852 25.16 12.7 54.9 67 6.9 44.4 -89.4 -3.52
07:39 1023 30.21 852 25.16 12.8 55.1 66 6.6 43.9 -89.4 -3.52
07:40 1023 30.21 852 25.16 12.9 55.3 64 6.4 43.5 -89.4 -3.52
07:41 1023 30.21 852 25.16 13 55.4 65 6.7 44.1 -89.3 -3.516
07:42 1023 30.21 852 25.16 13.1 55.6 64 6.5 43.8 -89.3 -3.516
07:43 1023 30.21 852 25.16 13.2 55.7 63 6.3 43.3 -89.3 -3.516
07:44 1023 30.21 852 25.16 13.2 55.8 65 6.9 44.4 -89.3 -3.516
07:45 1023 30.21 852 25.16 13.3 56 66 7.1 44.8 -89.3 -3.516
07:46 1023 30.21 852 25.16 13.4 56.2 66 7.2 45 -89.3 -3.516
07:47 1023 30.21 852 25.16 13.6 56.4 65 7.1 44.8 -89.3 -3.516
07:48 1023 30.21 852 25.16 13.6 56.5 63 6.8 44.2 -89.3 -3.516
07:49 1023 30.21 852 25.16 13.7 56.7 62 6.7 44 -89.3 -3.516
07:50 1023 30.21 852 25.16 13.8 56.9 60 6.2 43.2 -89.3 -3.516
07:51 1023 30.21 852 25.16 13.9 57.1 62 6.9 44.4 -89.3 -3.516
07:52 1023 30.21 852 25.16 14 57.2 60 6.4 43.5 -89.2 -3.512
07:53 1023 30.21 852 25.16 14.1 57.3 61 6.7 44 -89.2 -3.512
07:54 1023 30.21 852 25.16 14.1 57.4 61 6.8 44.3 -89.2 -3.512
07:55 1023 30.21 852 25.16 14.2 57.6 64 7.5 45.5 -89.2 -3.512
07:56 1023 30.21 852 25.16 14.3 57.7 61 7 44.6 -89.2 -3.512
07:57 1023 30.21 852 25.16 14.3 57.8 62 7.2 44.9 -89.2 -3.512
07:58 1023 30.21 852 25.16 14.4 57.9 60 6.9 44.4 -89.1 -3.508
07:59 1023 30.21 852 25.16 14.5 58.1 64 7.7 45.9 -89.1 -3.508
08:00 1023 30.21 852 25.16 14.6 58.3 63 7.8 46 -89.1 -3.508
08:01 1023 30.21 852 25.16 14.7 58.4 57 6.4 43.5 -89.1 -3.508
08:02 1023 30.21 852 25.16 14.7 58.5 61 7.3 45.1 -89.1 -3.508
08:03 1023 30.21 852 25.16 14.8 58.6 62 7.5 45.6 -89.1 -3.508
08:04 1023 30.21 852 25.16 14.9 58.8 61 7.5 45.4 -89.1 -3.508
08:05 1023 30.21 852 25.16 15 59 63 8 46.4 -89 -3.504
08:06 1023 30.21 852 25.16 15.1 59.2 57 6.7 44.1 -89 -3.504
08:07 1023 30.21 852 25.16 15.2 59.3 57 6.7 44 -89 -3.504
08:08 1023 30.21 852 25.16 15.2 59.3 57 6.9 44.4 -89 -3.504
08:09 1023 30.21 852 25.16 15.2 59.3 59 7.3 45.2 -89 -3.504
08:10 1023 30.21 852 25.16 15.2 59.4 59 7.3 45.1 -88.9 -3.5
08:11 1023 30.21 852 25.16 15.2 59.3 58 7.1 44.7 -88.9 -3.5
08:12 1023 30.21 852 25.16 15.2 59.3 56 6.7 44 -88.9 -3.5
08:13 1023 30.21 852 25.16 15.2 59.3 60 7.5 45.5 -88.9 -3.5
08:14 1023 30.21 852 25.16 15.3 59.5 59 7.4 45.3 -88.9 -3.5
08:15 1023 30.21 852 25.16 15.3 59.6 58 7.1 44.9 -88.9 -3.5
08:16 1023 30.21 852 25.16 15.4 59.6 58 7.3 45.1 -88.8 -3.496
08:17 1023 30.21 852 25.16 15.5 59.8 59 7.7 45.8 -88.8 -3.496
08:18 1023 30.21 852 25.16 15.6 60 57 7.2 44.9 -88.8 -3.496
08:19 1023 30.21 852 25.16 15.6 60.1 57 7.1 44.8 -88.8 -3.496
08:20 1023 30.21 852 25.16 15.7 60.3 58 7.5 45.6 -88.7 -3.492
08:21 1023 30.21 852 25.16 15.8 60.4 58 7.5 45.5 -88.7 -3.492
08:22 1023 30.21 852 25.16 15.8 60.5 63 8.8 47.9 -88.7 -3.492
08:23 1023 30.21 852 25.16 15.9 60.7 56 7.3 45.1 -88.6 -3.488
08:24 1023 30.21 852 25.16 16 60.7 58 7.8 46.1 -88.6 -3.488
08:25 1023 30.21 852 25.16 16.1 61 61 8.8 47.8 -88.6 -3.488
08:26 1023 30.21 852 25.16 16.2 61.2 59 8.2 46.8 -88.6 -3.488
08:27 1023 30.21 852 25.16 16.3 61.4 58 8.2 46.8 -88.6 -3.488
08:28 1023 30.21 852 25.16 16.4 61.4 57 7.8 46 -88.6 -3.488
08:29 1023 30.21 852 25.16 16.5 61.6 60 8.8 47.8 -88.5 -3.484
08:30 1023 30.21 852 25.16 16.6 61.9 56 8 46.4 -88.5 -3.484
08:31 1023 30.21 852 25.16 16.7 62.1 58 8.5 47.3 -88.5 -3.484
08:32 1023 30.21 852 25.16 16.8 62.3 60 9.2 48.6 -88.4 -3.48
08:33 1023 30.21 852 25.16 17 62.7 54 7.7 45.8 -88.4 -3.48
08:34 1023 30.21 852 25.16 17.1 62.8 55 8.1 46.6 -88.4 -3.48
08:35 1023 30.21 852 25.16 17.1 62.8 57 8.7 47.6 -88.4 -3.48
08:36 1023 30.21 852 25.16 17.2 62.9 57 8.7 47.6 -88.4 -3.48
08:37 1023 30.21 852 25.16 17.3 63.1 50 6.8 44.2 -88.3 -3.476
08:38 1023 30.21 852 25.16 17.3 63.2 52 7.5 45.6 -88.3 -3.476
08:39 1023 30.21 852 25.16 17.5 63.4 49 6.9 44.4 -88.3 -3.476
08:40 1023 30.21 852 25.16 17.5 63.5 51 7.3 45.2 -88.2 -3.472
08:41 1023 30.21 852 25.16 17.6 63.7 51 7.6 45.7 -88.2 -3.472
08:42 1023 30.21 852 25.16 17.7 63.8 56 9 48.2 -88.2 -3.472
08:43 1023 30.21 852 25.16 17.8 64 50 7.5 45.5 -88.1 -3.469
08:44 1023 30.21 852 25.16 17.9 64.2 53 8.1 46.6 -88.1 -3.469
08:45 1023 30.21 852 25.16 18 64.4 51 8 46.3 -88.1 -3.469
08:46 1023 30.21 852 25.16 18.1 64.5 50 7.7 45.9 -88 -3.465
08:47 1023 30.21 852 25.16 18.1 64.5 50 7.7 45.9 -88 -3.465
08:48 1023 30.21 852 25.16 18 64.5 49 7.2 45 -88 -3.465
08:49 1023 30.21 852 25.16 18.1 64.6 53 8.4 47.1 -87.9 -3.461
08:50 1023 30.21 852 25.16 18.2 64.7 48 7.1 44.9 -87.9 -3.461
08:51 1023 30.21 852 25.16 18.2 64.7 48 7 44.6 -87.9 -3.461
08:52 1023 30.21 852 25.16 18.2 64.8 44 6 42.8 -87.8 -3.457
08:53 1023 30.21 852 25.16 18.2 64.7 46 6.4 43.5 -87.8 -3.457
08:54 1023 30.21 852 25.16 18.2 64.8 47 7 44.5 -87.8 -3.457
08:55 1023 30.21 852 25.16 18.4 65.1 48 7.3 45.2 -87.7 -3.453
08:56 1023 30.21 852 25.16 18.5 65.3 42 5.5 41.8 -87.7 -3.453
08:57 1023 30.21 852 25.16 18.5 65.4 47 7.1 44.7 -87.7 -3.453
08:58 1023 30.21 852 25.16 18.7 65.6 47 7.2 45 -87.7 -3.453
08:59 1023 30.21 852 25.16 18.9 65.9 46 7 44.6 -87.6 -3.449
09:00 1023 30.21 852 25.16 19.1 66.3 41 5.7 42.2 -87.6 -3.449
09:01 1023 30.21 852 25.16 19.2 66.6 48 8.1 46.6 -87.5 -3.445
09:02 1023 30.21 852 25.16 19.4 67 41 6.1 43 -87.5 -3.445
09:03 1023 30.21 852 25.16 19.6 67.2 44 7.1 44.8 -87.5 -3.445
09:04 1023 30.21 852 25.16 19.6 67.3 41 6 42.8 -87.4 -3.441
09:05 1023 30.21 852 25.16 19.6 67.3 40 5.6 42.1 -87.4 -3.441
09:06 1023 30.21 852 25.16 19.5 67.2 41 6 42.8 -87.3 -3.437
09:07 1023 30.21 852 25.16 19.7 67.5 41 6.3 43.4 -87.3 -3.437
09:08 1023 30.21 852 25.16 20 67.9 42 6.9 44.5 -87.2 -3.433
09:09 1023 30.21 852 25.16 20.2 68.3 41 6.7 44 -87.2 -3.433
09:10 1023 30.21 852 25.16 20.3 68.5 40 6.4 43.5 -87.1 -3.429
09:11 1023 30.21 852 25.16 20.2 68.3 46 8.3 46.9 -87.1 -3.429
09:12 1023 30.21 852 25.16 20 68 46 8 46.5 -87 -3.425
09:13 1023 30.21 852 25.16 19.8 67.7 47 8.4 47.1 -87 -3.425
09:14 1023 30.21 852 25.16 19.7 67.5 42 6.6 43.9 -87 -3.425
09:15 1023 30.21 852 25.16 19.8 67.7 48 8.6 47.5 -86.9 -3.421
09:16 1023 30.21 852 25.16 20.1 68.1 41 6.6 43.8 -86.9 -3.421
09:17 1023 30.21 852 25.16 20.2 68.4 43 7.3 45.1 -86.8 -3.417
09:18 1023 30.21 852 25.16 20.3 68.5 41 6.8 44.2 -86.8 -3.417
09:19 1023 30.21 852 25.16 20.4 68.7 36 4.9 40.8 -86.7 -3.413
09:20 1023 30.21 852 25.16 20.4 68.8 39 6.1 42.9 -86.6 -3.409
09:21 1023 30.21 852 25.16 20.5 69 41 6.9 44.5 -86.6 -3.409
09:22 1023 30.21 852 25.16 20.7 69.2 38 6 42.7 -86.6 -3.409
09:23 1023 30.21 852 25.16 20.8 69.4 37 5.7 42.2 -86.5 -3.406
09:24 1023 30.21 852 25.16 20.8 69.4 41 7.2 45 -86.5 -3.406
09:25 1023 30.21 852 25.16 20.8 69.4 42 7.4 45.4 -86.4 -3.402
09:26 1023 30.21 852 25.16 20.6 69.2 41 6.9 44.5 -86.4 -3.402
09:27 1023 30.21 852 25.16 20.7 69.2 36 5.4 41.6 -86.4 -3.402
09:28 1023 30.21 852 25.16 20.7 69.2 38 6.1 43.1 -86.3 -3.398
09:29 1023 30.21 852 25.16 20.8 69.4 36 5.2 41.4 -86.3 -3.398
09:30 1023 30.21 852 25.16 20.9 69.7 34 4.9 40.7 -86.2 -3.394
09:31 1023 30.21 852 25.16 21.2 70.1 34 4.7 40.4 -86.1 -3.39
09:32 1023 30.21 852 25.16 21.2 70.2 34 4.9 40.8 -86.1 -3.39
09:33 1023 30.21 852 25.16 21 69.8 38 6.4 43.6 -86 -3.386
09:34 1023 30.21 852 25.16 20.7 69.3 37 5.8 42.4 -86 -3.386
09:35 1023 30.21 852 25.16 20.6 69.2 38 5.9 42.6 -85.9 -3.382
09:36 1023 30.21 852 25.16 20.6 69.1 40 6.7 44 -85.9 -3.382
09:37 1023 30.21 852 25.16 20.6 69 37 5.6 42.1 -85.8 -3.378
09:38 1023 30.21 852 25.16 20.6 69 39 6.3 43.3 -85.8 -3.378
09:39 1023 30.21 852 25.16 20.6 69 37 5.5 42 -85.7 -3.374
09:40 1023 30.21 852 25.16 20.4 68.8 42 7.2 45 -85.6 -3.37
09:41 1023 30.21 852 25.16 20.5 69 39 6.4 43.5 -85.5 -3.366
09:42 1023 30.21 852 25.16 20.7 69.2 37 5.7 42.2 -85.5 -3.366
09:43 1023 30.21 852 25.16 20.7 69.3 42 7.5 45.5 -85.4 -3.362
09:44 1023 30.21 852 25.16 20.9 69.6 36 5.5 41.9 -85.3 -3.358
09:45 1023 30.21 852 25.16 21 69.8 37 6 42.9 -85.3 -3.358
09:46 1023 30.21 852 25.16 21 69.8 36 5.4 41.7 -85.2 -3.354
09:47 1023 30.21 852 25.16 20.9 69.6 35 5 40.9 -85.2 -3.354
09:48 1023 30.21 852 25.16 20.7 69.2 38 6 42.7 -85.1 -3.35
09:49 1023 30.21 852 25.16 20.6 69 36 5.2 41.3 -85.1 -3.35
09:50 1023 30.21 852 25.16 20.5 68.9 43 7.6 45.7 -85 -3.346
09:51 1023 30.21 852 25.16 20.5 68.8 38 5.9 42.6 -84.9 -3.343
09:52 1023 30.21 852 25.16 20.5 68.9 35 4.9 40.8 -84.9 -3.343
09:53 1023 30.21 852 25.16 20.5 68.9 36 5.2 41.4 -84.8 -3.339
09:54 1023 30.21 852 25.16 20.5 68.8 36 5.1 41.3 -84.7 -3.335
09:55 1023 30.21 852 25.16 20.5 68.8 38 5.7 42.3 -84.7 -3.335
09:56 1023 30.21 852 25.16 20.4 68.8 37 5.4 41.7 -84.6 -3.331
09:57 1023 30.21 852 25.16 20.4 68.7 39 6.1 43.1 -84.5 -3.327
09:58 1023 30.21 852 25.16 20.4 68.7 37 5.2 41.4 -84.5 -3.327
09:59 1023 30.21 852 25.16 20.5 68.9 37 5.3 41.6 -84.4 -3.323
10:00 1023 30.21 852 25.16 20.5 69 34 4.4 39.9 -84.4 -3.323
10:01 1023 30.21 852 25.16 20.6 69.1 34 4.2 39.6 -84.3 -3.319
10:02 1023 30.21 852 25.16 20.8 69.4 34 4.4 39.8 -84.2 -3.315
10:03 1023 30.21 852 25.16 20.9 69.7 33 4.3 39.7 -84.2 -3.315
10:04 1023 30.21 852 25.16 21 69.9 33 4.2 39.6 -84.1 -3.311
10:05 1023 30.21 852 25.16 21.1 70 34 4.8 40.7 -84 -3.307
10:06 1023 30.21 852 25.16 21.1 70.1 34 5 41.1 -84 -3.307
10:07 1023 30.21 852 25.16 21.1 70 33 4.5 40.2 -83.9 -3.303
10:08 1023 30.21 852 25.16 21.2 70.1 38 6.3 43.3 -83.8 -3.299
10:09 1023 30.21 852 25.16 21.3 70.4 34 5 41 -83.7 -3.295
10:10 1023 30.21 852 25.16 21.3 70.4 39 6.9 44.5 -83.7 -3.295
10:11 1023 30.21 852 25.16 21.4 70.4 39 7.1 44.9 -83.6 -3.291
10:12 1023 30.21 852 25.16 21.3 70.3 41 7.5 45.5 -83.6 -3.291
10:13 1023 30.21 852 25.16 21.1 70 37 6.1 43.1 -83.5 -3.287
10:14 1023 30.21 852 25.16 21.1 69.9 34 4.7 40.5 -83.5 -3.287
10:15 1023 30.21 852 25.16 20.9 69.6 40 6.9 44.5 -83.4 -3.283
10:16 1023 30.21 852 25.16 20.9 69.6 35 5 41 -83.3 -3.28
10:17 1023 30.21 852 25.16 20.8 69.5 35 5 41 -83.2 -3.276
10:18 1023 30.21 852 25.16 20.9 69.7 35 4.9 40.9 -83.1 -3.272
10:19 1023 30.21 852 25.16 20.9 69.7 34 4.8 40.6 -83.1 -3.272
10:20 1023 30.21 852 25.16 20.9 69.5 34 4.8 40.6 -83 -3.268
10:21 1023 30.21 852 25.16 20.9 69.5 35 4.9 40.8 -82.9 -3.264
10:22 1023 30.21 852 25.16 20.9 69.6 40 6.9 44.4 -82.9 -3.264
10:23 1023 30.21 852 25.16 21 69.7 37 6.1 42.9 -82.8 -3.26
10:24 1023 30.21 852 25.16 21 69.7 44 8.3 47 -82.8 -3.26
10:25 1023 30.21 852 25.16 21.2 70.1 38 6.4 43.5 -82.7 -3.256
10:26 1023 30.21 852 25.16 21.3 70.3 39 6.8 44.2 -82.6 -3.252
10:27 1023 30.21 852 25.16 21.4 70.4 32 4.2 39.6 -82.5 -3.248
10:28 1023 30.21 852 25.16 21.3 70.4 32 4.3 39.7 -82.5 -3.248
10:29 1023 30.21 852 25.16 21.2 70.2 38 6.3 43.4 -82.4 -3.244
10:30 1023 30.21 852 25.16 21.1 70 37 5.9 42.7 -82.4 -3.244
10:31 1023 30.21 852 25.16 21 69.8 32 3.8 38.8 -82.3 -3.24
10:32 1023 30.21 852 25.16 20.9 69.7 31 3.5 38.3 -82.2 -3.236
10:33 1023 30.21 852 25.16 21 69.8 37 5.9 42.6 -82.1 -3.232
10:34 1023 30.21 852 25.16 21 69.9 37 6 42.8 -82.1 -3.232
10:35 1023 30.21 852 25.16 21.1 69.9 33 4.5 40 -82 -3.228
10:36 1023 30.21 852 25.16 21 69.7 35 5 40.9 -82 -3.228
10:37 1023 30.21 852 25.16 21 69.7 39 6.8 44.2 -81.9 -3.224
10:38 1023 30.21 852 25.16 20.9 69.6 33 4 39.2 -81.8 -3.22
10:39 1023 30.21 852 25.16 20.8 69.5 34 4.7 40.5 -81.8 -3.22
10:40 1023 30.21 852 25.16 20.9 69.6 36 5.3 41.5 -81.7 -3.217
10:41 1023 30.21 852 25.16 21 69.8 35 5.2 41.3 -81.6 -3.213
10:42 1023 30.21 852 25.16 21.1 69.9 35 5.1 41.2 -81.6 -3.213
10:43 1023 30.21 852 25.16 21.2 70.1 33 4.5 40 -81.5 -3.209
10:44 1023 30.21 852 25.16 21.2 70.1 37 6.1 43 -81.4 -3.205
10:45 1023 30.21 852 25.16 21.1 70 33 4.4 39.9 -81.3 -3.201
10:46 1023 30.21 852 25.16 21.1 69.9 36 5.4 41.8 -81.3 -3.201
10:47 1023 30.21 852 25.16 21.1 69.9 40 7.1 44.7 -81.2 -3.197
10:48 1023 30.21 852 25.16 21.1 69.9 34 4.7 40.5 -81.2 -3.197
10:49 1023 30.21 852 25.16 21 69.9 41 7.4 45.4 -81.3 -3.201
10:50 1023 30.21 852 25.16 21.2 70.1 37 6.1 43 -81.2 -3.197
10:51 1023 30.21 852 25.16 21.4 70.5 40 7.3 45.1 -81.1 -3.193
10:52 1023 30.21 852 25.16 21.6 70.9 36 6.2 43.2 -80.9 -3.185
10:53 1023 30.21 852 25.16 21.6 70.8 33 5 41 -80.8 -3.181
10:54 1023 30.21 852 25.16 21.4 70.5 33 4.8 40.7 -80.8 -3.181
10:55 1023 30.21 852 25.16 21.3 70.3 34 4.9 40.9 -80.7 -3.177
10:56 1023 30.21 852 25.16 21.1 69.9 33 4.5 40 -80.7 -3.177
10:57 1023 30.21 852 25.16 21 69.8 39 6.8 44.3 -80.6 -3.173
10:58 1023 30.21 852 25.16 21 69.8 34 4.6 40.3 -80.6 -3.173
10:59 1023 30.21 852 25.16 21 69.7 40 7 44.6 -80.5 -3.169
11:00 1023 30.21 852 25.16 20.9 69.6 33 4.2 39.6 -80.4 -3.165
11:01 1023 30.21 852 25.16 20.8 69.5 33 4.2 39.5 -80.4 -3.165
11:02 1023 30.21 852 25.16 20.8 69.4 32 3.9 39 -80.3 -3.161
11:03 1023 30.21 852 25.16 20.8 69.5 39 6.6 43.9 -80.3 -3.161
11:04 1023 30.21 852 25.16 21 69.8 34 4.7 40.4 -80.2 -3.157
11:05 1023 30.21 852 25.16 21.1 70 36 5.5 41.9 -80.1 -3.154
11:06 1023 30.21 852 25.16 21.2 70.1 32 4 39.2 -80.1 -3.154
11:07 1023 30.21 852 25.16 21.1 70 36 5.6 42.1 -80 -3.15
11:08 1023 30.21 852 25.16 21.1 70 34 4.8 40.7 -80 -3.15
11:09 1023 30.21 852 25.16 21.1 70 32 3.9 39.1 -79.9 -3.146
11:10 1023 30.21 852 25.16 21.2 70.2 29 2.7 36.8 -79.9 -3.146
11:11 1023 30.21 852 25.16 21.3 70.3 32 4 39.1 -79.8 -3.142
11:12 1023 30.21 852 25.16 21.3 70.3 31 3.8 38.9 -79.8 -3.142
11:13 1023 30.21 852 25.16 21.4 70.5 31 3.7 38.6 -79.7 -3.138
11:14 1023 30.21 852 25.16 21.4 70.4 36 6 42.8 -79.7 -3.138
11:15 1023 30.21 852 25.16 21.4 70.5 34 5.2 41.4 -79.6 -3.134
11:16 1023 30.21 852 25.16 21.5 70.6 32 4.1 39.4 -79.5 -3.13
11:17 1023 30.21 852 25.16 21.5 70.6 32 4.2 39.6 -79.5 -3.13
11:18 1023 30.21 852 25.16 21.5 70.7 34 5 41.1 -79.4 -3.126
11:19 1023 30.21 852 25.16 21.6 70.8 32 4.4 40 -79.4 -3.126
11:20 1023 30.21 852 25.16 21.6 70.8 31 4 39.1 -79.3 -3.122
11:21 1023 30.21 852 25.16 21.5 70.8 32 4.4 39.8 -79.3 -3.122
11:22 1023 30.21 852 25.16 21.5 70.7 37 6.2 43.2 -79.2 -3.118
11:23 1023 30.21 852 25.16 21.5 70.7 37 6.3 43.4 -79.1 -3.114
11:24 1023 30.21 852 25.16 21.6 70.9 36 5.9 42.7 -79.1 -3.114
11:25 1023 30.21 852 25.16 21.6 71 31 4.1 39.3 -79 -3.11
11:26 1023 30.21 852 25.16 21.6 70.9 37 6.6 43.9 -79 -3.11
11:27 1023 30.21 852 25.16 21.6 70.8 34 5.4 41.8 -78.9 -3.106
11:28 1023 30.21 852 25.16 21.6 70.9 35 5.7 42.3 -78.8 -3.102
11:29 1023 30.21 852 25.16 21.7 71 32 4.3 39.7 -78.8 -3.102
11:30 1023 30.21 852 25.16 21.6 70.9 42 8.3 46.9 -78.7 -3.098
11:31 1023 30.21 852 25.16 21.7 71.1 33 5.1 41.2 -78.6 -3.094
11:32 1023 30.21 852 25.16 21.7 71.1 38 6.9 44.4 -78.6 -3.094
11:33 1023 30.21 852 25.16 21.7 71 32 4.4 40 -78.5 -3.091
11:34 1023 30.21 852 25.16 21.8 71.2 37 6.6 43.8 -78.5 -3.091
11:35 1023 30.21 852 25.16 21.9 71.3 35 6 42.8 -78.4 -3.087
11:36 1023 30.21 852 25.16 22 71.6 37 6.9 44.4 -78.3 -3.083
11:37 1023 30.21 852 25.16 22.1 71.8 38 7.2 44.9 -78.3 -3.083
11:38 1023 30.21 852 25.16 22.1 71.8 33 5.2 41.4 -78.2 -3.079
11:39 1023 30.21 852 25.16 22.1 71.8 41 8.3 46.9 -78.2 -3.079
11:40 1023 30.21 852 25.16 22.3 72.1 43 9.2 48.5 -78.1 -3.075
11:41 1023 30.21 852 25.16 22.4 72.4 35 6.5 43.7 -78 -3.071
11:42 1023 30.21 852 25.16 22.5 72.4 37 7.4 45.4 -78 -3.071
11:43 1023 30.21 852 25.16 22.5 72.5 35 6.4 43.5 -77.9 -3.067
11:44 1023 30.21 852 25.16 22.6 72.7 37 7.5 45.4 -77.8 -3.063
11:45 1023 30.21 852 25.16 22.7 72.9 34 6.3 43.4 -77.7 -3.059
11:46 1023 30.21 852 25.16 22.7 72.9 37 7.5 45.4 -77.7 -3.059
11:47 1023 30.21 852 25.16 22.6 72.7 35 6.6 43.9 -77.6 -3.055
11:48 1023 30.21 852 25.16 22.5 72.6 36 6.7 44.1 -77.6 -3.055
11:49 1023 30.21 852 25.16 22.4 72.4 42 9 48.2 -77.5 -3.051
11:50 1023 30.21 852 25.16 22.6 72.6 39 8.2 46.7 -77.4 -3.047
11:51 1023 30.21 852 25.16 22.7 72.8 38 7.9 46.1 -77.3 -3.043
11:52 1023 30.21 852 25.16 22.7 72.9 36 7.1 44.7 -77.3 -3.043
11:53 1023 30.21 852 25.16 22.6 72.7 34 6.2 43.2 -77.2 -3.039
11:54 1023 30.21 852 25.16 22.6 72.6 39 8.1 46.6 -77.1 -3.035
11:55 1023 30.21 852 25.16 22.6 72.6 34 6.2 43.1 -77 -3.031
11:56 1023 30.21 852 25.16 22.6 72.6 40 8.5 47.2 -76.9 -3.028
11:57 1023 30.21 852 25.16 22.6 72.7 36 6.9 44.5 -76.9 -3.028
11:58 1023 30.21 852 25.16 22.6 72.6 39 8 46.5 -76.8 -3.024
11:59 1023 30.21 852 25.16 22.5 72.6 37 7.2 45 -76.7 -3.02
12:00 1023 30.21 852 25.16 22.6 72.6 33 5.6 42.1 -76.7 -3.02
12:01 1023 30.21 852 25.16 22.4 72.4 37 7.1 44.7 -76.6 -3.016
12:02 1022 30.18 852 25.16 22.5 72.4 32 5 40.9 -76.5 -3.012
12:03 1023 30.21 852 25.16 22.4 72.3 38 7.4 45.4 -76.5 -3.012
12:04 1023 30.21 852 25.16 22.4 72.4 32 5.2 41.4 -76.4 -3.008
12:05 1023 30.21 852 25.16 22.5 72.6 32 5.1 41.1 -76.4 -3.008
12:06 1022 30.18 852 25.16 22.6 72.7 32 5.4 41.7 -76.3 -3.004
12:07 1023 30.21 852 25.16 22.6 72.6 35 6.4 43.6 -76.2 -3
12:08 1022 30.18 852 25.16 22.5 72.5 34 6 42.8 -76.2 -3
12:09 1022 30.18 852 25.16 22.6 72.6 32 5.4 41.6 -76.1 -2.996
12:10 1022 30.18 852 25.16 22.6 72.6 32 5.5 41.8 -76.1 -2.996
12:11 1022 30.18 852 25.16 22.5 72.6 33 5.6 42.1 -76 -2.992
12:12 1022 30.18 852 25.16 22.6 72.7 33 5.6 42.1 -76 -2.992
12:13 1022 30.18 852 25.16 22.7 72.8 36 7 44.7 -75.9 -2.988
12:14 1022 30.18 852 25.16 22.8 73 33 5.8 42.4 -75.8 -2.984
12:15 1022 30.18 852 25.16 23 73.4 32 5.8 42.4 -75.8 -2.984
12:16 1022 30.18 852 25.16 23 73.5 33 6.1 42.9 -75.7 -2.98
12:17 1022 30.18 852 25.16 23.1 73.6 34 6.8 44.3 -75.7 -2.98
12:18 1022 30.18 852 25.16 23.3 73.9 35 7 44.7 -75.6 -2.976
12:19 1022 30.18 852 25.16 23.4 74 33 6.2 43.2 -75.6 -2.976
12:20 1022 30.18 852 25.16 23.2 73.7 38 8.4 47 -75.5 -2.972
12:21 1022 30.18 852 25.16 23.1 73.6 40 8.9 48 -75.5 -2.972
12:22 1022 30.18 852 25.16 23.2 73.7 33 6.2 43.2 -75.4 -2.969
12:23 1022 30.18 852 25.16 23.3 73.9 32 5.8 42.4 -75.3 -2.965
12:24 1022 30.18 852 25.16 23.3 73.9 33 6.4 43.6 -75.3 -2.965
12:25 1022 30.18 852 25.16 23.3 73.9 39 8.6 47.5 -75.2 -2.961
12:26 1022 30.18 852 25.16 23.4 74.2 37 8.2 46.7 -75.1 -2.957
12:27 1022 30.18 852 25.16 23.5 74.3 41 9.7 49.5 -75.1 -2.957
12:28 1022 30.18 852 25.16 23.5 74.3 34 7.1 44.7 -75 -2.953
12:29 1022 30.18 851 25.13 23.6 74.5 38 8.7 47.7 -74.9 -2.949
12:30 1022 30.18 851 25.13 23.6 74.5 39 9.2 48.5 -74.9 -2.949
12:31 1022 30.18 851 25.13 23.7 74.6 33 6.5 43.7 -74.8 -2.945
12:32 1022 30.18 851 25.13 23.7 74.6 33 6.9 44.3 -74.8 -2.945
12:33 1022 30.18 851 25.13 23.6 74.5 31 5.7 42.2 -74.7 -2.941
12:34 1022 30.18 851 25.13 23.6 74.5 38 8.6 47.4 -74.6 -2.937
12:35 1022 30.18 851 25.13 23.7 74.6 31 5.7 42.3 -74.6 -2.937
12:36 1022 30.18 851 25.13 23.7 74.6 30 5.5 41.9 -74.5 -2.933
12:37 1022 30.18 851 25.13 23.7 74.6 30 5.3 41.6 -74.5 -2.933
12:38 1022 30.18 851 25.13 23.6 74.5 37 8.2 46.8 -74.4 -2.929
12:39 1022 30.18 851 25.13 23.7 74.7 31 5.9 42.7 -74.3 -2.925
12:40 1022 30.18 851 25.13 23.7 74.7 35 7.7 45.9 -74.3 -2.925
12:41 1022 30.18 851 25.13 23.7 74.7 33 6.9 44.3 -74.2 -2.921
12:42 1022 30.18 851 25.13 23.7 74.7 33 6.8 44.2 -74.2 -2.921
12:43 1022 30.18 851 25.13 23.6 74.5 30 5.4 41.8 -74.1 -2.917
12:44 1022 30.18 851 25.13 23.6 74.5 30 5.3 41.5 -74 -2.913
12:45 1022 30.18 851 25.13 23.7 74.7 28 4.5 40.2 -74 -2.913
12:46 1022 30.18 851 25.13 23.9 75 33 6.9 44.5 -73.9 -2.909
12:47 1022 30.18 851 25.13 23.9 75 30 5.4 41.6 -73.9 -2.909
12:48 1022 30.18 851 25.13 23.8 74.9 39 9.3 48.8 -73.8 -2.906
12:49 1022 30.18 851 25.13 23.9 75 30 5.2 41.4 -73.8 -2.906
12:50 1022 30.18 851 25.13 23.8 74.9 36 8.1 46.6 -73.7 -2.902
12:51 1022 30.18 851 25.13 23.8 74.9 31 5.9 42.5 -73.7 -2.902
12:52 1022 30.18 851 25.13 23.9 75 30 5.7 42.2 -73.6 -2.898
12:53 1022 30.18 851 25.13 23.9 75 28 4.4 39.9 -73.6 -2.898
12:54 1022 30.18 851 25.13 24 75.1 33 6.9 44.5 -73.7 -2.902
12:55 1022 30.18 851 25.13 24 75.1 31 6.2 43.2 -73.6 -2.898
12:56 1022 30.18 851 25.13 24 75.1 34 7.5 45.5 -73.5 -2.894
12:57 1022 30.18 851 25.13 24 75.2 30 5.7 42.2 -73.4 -2.89
12:58 1022 30.18 851 25.13 24 75.2 34 7.6 45.6 -73.3 -2.886
12:59 1022 30.18 851 25.13 24 75.2 30 5.6 42.1 -73.3 -2.886
13:00 1022 30.18 851 25.13 24 75.3 32 6.4 43.5 -73.3 -2.886
13:01 1022 30.18 851 25.13 24.1 75.4 34 7.5 45.5 -73.2 -2.882
13:02 1022 30.18 851 25.13 24.2 75.6 30 5.7 42.3 -73.1 -2.878
13:03 1022 30.18 851 25.13 24.2 75.6 28 5 41 -73.1 -2.878
13:04 1022 30.18 851 25.13 24.1 75.4 29 5 41.1 -73.1 -2.878
13:05 1022 30.18 851 25.13 24.1 75.3 30 5.5 41.9 -73.1 -2.878
13:06 1022 30.18 851 25.13 24.1 75.3 30 5.9 42.6 -73.1 -2.878
13:07 1022 30.18 851 25.13 24 75.2 33 7.1 44.8 -73.1 -2.878
13:08 1022 30.18 851 25.13 24.1 75.4 36 8.4 47.1 -72.9 -2.87
13:09 1022 30.18 851 25.13 24.3 75.8 39 9.8 49.7 -72.9 -2.87
13:10 1022 30.18 851 25.13 24.6 76.4 32 6.9 44.4 -72.9 -2.87
13:11 1022 30.18 851 25.13 24.8 76.7 27 4.6 40.2 -72.8 -2.866
13:12 1022 30.18 851 25.13 24.8 76.7 29 6.1 42.9 -72.8 -2.866
13:13 1022 30.18 851 25.13 24.9 76.9 33 7.9 46.3 -72.7 -2.862
13:14 1022 30.18 851 25.13 25.1 77.2 32 7.7 45.8 -72.7 -2.862
13:15 1022 30.18 851 25.13 25.1 77.1 27 4.7 40.5 -72.6 -2.858
13:16 1022 30.18 851 25.13 24.9 76.8 28 5.4 41.7 -72.6 -2.858
13:17 1022 30.18 851 25.13 24.8 76.6 33 7.6 45.7 -72.6 -2.858
13:18 1022 30.18 851 25.13 25 76.9 29 5.7 42.3 -72.6 -2.858
13:19 1022 30.18 851 25.13 25 77 27 4.9 40.9 -72.5 -2.854
13:20 1022 30.18 851 25.13 24.9 76.8 28 5.4 41.8 -72.5 -2.854
13:21 1022 30.18 851 25.13 24.9 76.9 27 4.9 40.8 -72.4 -2.85
13:22 1022 30.18 851 25.13 24.9 76.8 28 5.2 41.3 -72.4 -2.85
13:23 1022 30.18 851 25.13 24.9 76.7 31 6.6 43.9 -72.4 -2.85
13:24 1022 30.18 851 25.13 24.8 76.7 30 6.2 43.2 -72.3 -2.846
13:25 1022 30.18 851 25.13 24.8 76.6 33 7.7 45.8 -72.3 -2.846
13:26 1022 30.18 851 25.13 24.8 76.7 30 6.4 43.5 -72.2 -2.843
13:27 1022 30.18 851 25.13 24.9 76.8 32 7.4 45.3 -72.2 -2.843
13:28 1022 30.18 851 25.13 25 76.9 26 4.6 40.2 -72.2 -2.843
13:29 1022 30.18 851 25.13 25 77 32 7.6 45.7 -72.2 -2.843
13:30 1022 30.18 851 25.13 25.2 77.3 28 5.8 42.4 -72.3 -2.846
13:31 1022 30.18 851 25.13 25.3 77.5 30 6.5 43.7 -72.1 -2.839
13:32 1022 30.18 851 25.13 25.2 77.3 33 7.8 46.1 -72.1 -2.839
13:33 1022 30.18 851 25.13 25.2 77.3 27 5.1 41.2 -72 -2.835
13:34 1022 30.18 851 25.13 25.1 77.2 27 4.9 40.8 -72 -2.835
13:35 1022 30.18 851 25.13 25.3 77.5 27 5 41 -71.9 -2.831
13:36 1022 30.18 851 25.13 25.4 77.6 32 7.8 46 -71.9 -2.831
13:37 1022 30.18 851 25.13 25.4 77.7 27 5.5 41.9 -71.8 -2.827
13:38 1022 30.18 851 25.13 25.3 77.6 24 3.8 38.8 -71.8 -2.827
13:39 1022 30.18 851 25.13 25.2 77.4 30 6.7 44.1 -71.8 -2.827
13:40 1022 30.18 851 25.13 25.3 77.6 31 7.1 44.9 -71.8 -2.827
13:41 1022 30.18 851 25.13 25.5 77.9 28 5.8 42.4 -71.7 -2.823
13:42 1022 30.18 851 25.13 25.6 78.1 26 4.8 40.6 -71.7 -2.823
13:43 1022 30.18 851 25.13 25.6 78.1 26 4.7 40.4 -71.7 -2.823
13:44 1022 30.18 851 25.13 25.5 78 30 7 44.6 -71.6 -2.819
13:45 1022 30.18 851 25.13 25.6 78 32 7.9 46.2 -71.6 -2.819
13:46 1022 30.18 851 25.13 25.7 78.3 26 5.1 41.3 -71.5 -2.815
13:47 1022 30.18 851 25.13 25.7 78.2 31 7.4 45.4 -71.5 -2.815
13:48 1022 30.18 851 25.13 25.7 78.3 29 6.8 44.2 -71.4 -2.811
13:49 1022 30.18 851 25.13 25.8 78.5 25 4.8 40.7 -71.4 -2.811
13:50 1022 30.18 851 25.13 25.7 78.2 25 4.1 39.5 -71.4 -2.811
13:51 1022 30.18 851 25.13 25.6 78 25 4.3 39.7 -71.4 -2.811
13:52 1022 30.18 851 25.13 25.6 78 29 6.5 43.7 -71.3 -2.807
13:53 1022 30.18 851 25.13 25.6 78.1 28 6 42.7 -71.3 -2.807
13:54 1022 30.18 851 25.13 25.8 78.4 30 7.3 45.2 -71.2 -2.803
13:55 1022 30.18 851 25.13 25.9 78.7 27 5.9 42.7 -71.2 -2.803
13:56 1022 30.18 851 25.13 25.9 78.7 26 5 41 -71.1 -2.799
13:57 1022 30.18 851 25.13 25.9 78.6 28 6.2 43.2 -71.1 -2.799
13:58 1022 30.18 851 25.13 25.9 78.6 29 6.7 44 -71 -2.795
13:59 1022 30.18 851 25.13 26.1 78.9 27 5.9 42.6 -71 -2.795
14:00 1022 30.18 851 25.13 26.2 79.1 24 4.5 40.2 -70.9 -2.791
14:01 1022 30.18 851 25.13 26 78.8 24 4.2 39.5 -70.9 -2.791
14:02 1022 30.18 851 25.13 25.9 78.6 26 5.4 41.7 -70.9 -2.791
14:03 1022 30.18 851 25.13 25.9 78.6 32 8.2 46.8 -70.9 -2.791
14:04 1021 30.15 851 25.13 26 78.7 23 3.6 38.5 -70.8 -2.787
14:05 1021 30.15 851 25.13 26 78.8 24 4.1 39.5 -70.7 -2.783
14:06 1021 30.15 851 25.13 26 78.7 23 3.6 38.5 -70.7 -2.783
14:07 1021 30.15 851 25.13 26 78.7 26 5.1 41.2 -70.6 -2.78
14:08 1021 30.15 851 25.13 26 78.9 24 4.2 39.5 -70.6 -2.78
14:09 1021 30.15 851 25.13 26.1 78.9 23 3.9 38.9 -70.5 -2.776
14:10 1021 30.15 851 25.13 26.1 78.9 26 5.4 41.7 -70.6 -2.78
14:11 1021 30.15 851 25.13 26.1 79.1 24 4 39.1 -70.5 -2.776
14:12 1021 30.15 851 25.13 26.3 79.3 31 7.9 46.2 -70.4 -2.772
14:13 1021 30.15 851 25.13 26.5 79.6 26 5.6 42.1 -70.3 -2.768
14:14 1021 30.15 851 25.13 26.5 79.6 24 4.3 39.7 -70.2 -2.764
14:15 1021 30.15 850 25.1 26.4 79.6 29 7 44.6 -70.2 -2.764
14:16 1021 30.15 850 25.1 26.4 79.5 25 5.1 41.1 -70.1 -2.76
14:17 1021 30.15 850 25.1 26.3 79.4 24 4.6 40.4 -70.1 -2.76
14:18 1021 30.15 850 25.1 26.4 79.4 25 4.8 40.6 -70 -2.756
14:19 1021 30.15 850 25.1 26.4 79.6 31 8.2 46.7 -69.92 -2.753
14:20 1021 30.15 850 25.1 26.5 79.7 28 7 44.5 -69.83 -2.749
14:21 1021 30.15 850 25.1 26.5 79.8 24 4.5 40 -69.77 -2.747
14:22 1021 30.15 850 25.1 26.6 79.8 25 5.5 41.8 -69.68 -2.743
14:23 1021 30.15 850 25.1 26.4 79.6 28 6.9 44.3 -69.6 -2.74
14:24 1021 30.15 850 25.1 26.3 79.3 27 5.9 42.5 -69.51 -2.737
14:25 1021 30.15 850 25.1 26.2 79.2 24 4.6 40.3 -69.42 -2.733
14:26 1021 30.15 850 25.1 26.2 79.2 24 4.1 39.4 -69.33 -2.73
14:27 1021 30.15 850 25.1 26.3 79.3 24 4.2 39.6 -69.25 -2.726
14:28 1021 30.15 850 25.1 26.4 79.4 25 5.3 41.5 -69.15 -2.722
14:29 1021 30.15 850 25.1 26.5 79.6 24 4.8 40.6 -69.07 -2.719
14:30 1021 30.15 850 25.1 26.6 79.9 23 4.4 39.8 -68.99 -2.716
14:31 1021 30.15 850 25.1 26.6 79.8 27 6.1 42.9 -68.93 -2.714
14:32 1021 30.15 850 25.1 26.7 80 27 6.5 43.8 -68.84 -2.71
14:33 1021 30.15 850 25.1 26.6 80 28 6.7 44 -68.74 -2.706
14:34 1021 30.15 850 25.1 26.7 80 25 5.5 41.9 -68.65 -2.703
14:35 1021 30.15 850 25.1 26.7 80 23 4.4 39.9 -68.59 -2.7
14:36 1021 30.15 850 25.1 26.7 80 26 5.6 42.1 -68.52 -2.698
14:37 1021 30.15 850 25.1 26.7 80 28 6.9 44.4 -68.47 -2.696
14:38 1021 30.15 850 25.1 26.7 80.1 27 6.3 43.4 -68.41 -2.693
14:39 1021 30.15 850 25.1 26.8 80.3 27 6.5 43.7 -68.29 -2.689
14:40 1021 30.15 850 25.1 26.9 80.5 27 6.7 44.1 -68.19 -2.685
14:41 1021 30.15 850 25.1 26.9 80.5 23 4.6 40.2 -68.12 -2.682
14:42 1021 30.15 850 25.1 27 80.6 25 5.8 42.5 -68.05 -2.679
14:43 1021 30.15 850 25.1 27 80.5 22 3.7 38.7 -67.99 -2.677
14:44 1021 30.15 850 25.1 26.9 80.5 26 6.2 43.1 -67.92 -2.674
14:45 1021 30.15 850 25.1 27 80.6 25 5.7 42.2 -67.84 -2.671
14:46 1021 30.15 850 25.1 27.2 80.9 25 5.7 42.2 -67.74 -2.667
14:47 1021 30.15 850 25.1 27.3 81.1 29 8 46.3 -67.65 -2.663
14:48 1021 30.15 850 25.1 27.3 81.2 24 5.5 41.9 -67.54 -2.659
14:49 1021 30.15 850 25.1 27.4 81.3 25 6 42.8 -67.35 -2.652
14:50 1021 30.15 850 25.1 27.4 81.3 26 6.6 43.8 -67.14 -2.643
14:51 1021 30.15 850 25.1 27.4 81.2 22 3.9 39 -67.04 -2.639
14:52 1021 30.15 850 25.1 27.5 81.4 26 6.7 44 -66.81 -2.63
14:53 1021 30.15 850 25.1 27.5 81.4 21 3.7 38.6 -66.66 -2.624
14:54 1021 30.15 850 25.1 27.5 81.5 21 3.7 38.6 -66.53 -2.619
14:55 1021 30.15 850 25.1 27.7 81.8 18 1.6 34.9 -66.41 -2.615
14:56 1021 30.15 850 25.1 27.7 81.8 28 7.6 45.7 -66.31 -2.611
14:57 1021 30.15 850 25.1 27.8 82 20 3.3 37.9 -66.2 -2.606
14:58 1021 30.15 850 25.1 27.8 82.1 24 5.4 41.7 -66.09 -2.602
14:59 1021 30.15 850 25.1 27.9 82.2 21 4.1 39.3 -65.96 -2.597
15:00 1021 30.15 850 25.1 28.1 82.5 20 3.6 38.5 -65.8 -2.591
15:01 1021 30.15 850 25.1 28.1 82.6 23 5.5 41.9 -65.71 -2.587
15:02 1021 30.15 850 25.1 28.1 82.6 22 4.8 40.6 -65.61 -2.583
15:03 1021 30.15 850 25.1 28.1 82.6 18 1.8 35.2 -65.51 -2.579
15:04 1021 30.15 850 25.1 28.1 82.5 18 1.9 35.4 -65.41 -2.575
15:05 1021 30.15 850 25.1 28 82.4 21 4.1 39.4 -65.32 -2.572
15:06 1021 30.15 850 25.1 28 82.5 27 7.7 45.8 -65.21 -2.567
15:07 1021 30.15 850 25.1 28.1 82.6 18 2.2 35.9 -65.09 -2.563
15:08 1021 30.15 850 25.1 28.2 82.8 22 4.7 40.4 -64.97 -2.558
15:09 1021 30.15 850 25.1 28.3 82.9 27 8 46.3 -64.83 -2.552
15:10 1021 30.15 850 25.1 28.3 82.9 21 4.3 39.7 -64.69 -2.547
15:11 1021 30.15 850 25.1 28.2 82.7 18 1.9 35.4 -64.57 -2.542
15:12 1021 30.15 850 25.1 28.1 82.6 20 3.5 38.4 -64.45 -2.537
15:13 1021 30.15 850 25.1 28.2 82.7 19 2.7 36.8 -64.32 -2.532
15:14 1021 30.15 850 25.1 28.3 82.9 19 2.5 36.5 -64.17 -2.526
15:15 1021 30.15 850 25.1 28.3 83 21 4 39.2 -64.04 -2.521
15:16 1021 30.15 850 25.1 28.3 83 23 5.3 41.6 -63.93 -2.517
15:17 1021 30.15 850 25.1 28.3 82.9 20 3.3 38 -63.86 -2.514
15:18 1021 30.15 850 25.1 28.2 82.8 22 4.8 40.7 -63.72 -2.509
15:19 1021 30.15 850 25.1 28.2 82.8 25 6.6 43.8 -63.57 -2.503
15:20 1021 30.15 850 25.1 28.3 82.9 22 4.7 40.5 -63.41 -2.496
15:21 1021 30.15 850 25.1 28.3 83 17 1.4 34.5 -63.27 -2.491
15:22 1021 30.15 850 25.1 28.3 82.9 27 7.7 45.8 -63.14 -2.486
15:23 1021 30.15 850 25.1 28.3 83 23 5.6 42 -62.98 -2.48
15:24 1021 30.15 850 25.1 28.4 83.1 24 6.4 43.5 -62.87 -2.475
15:25 1021 30.15 850 25.1 28.4 83.1 25 6.5 43.8 -62.81 -2.473
15:26 1021 30.15 850 25.1 28.3 83 25 6.5 43.7 -62.67 -2.467
15:27 1021 30.15 850 25.1 28.2 82.8 18 2 35.5 -62.54 -2.462
15:28 1021 30.15 850 25.1 28.1 82.6 20 3.6 38.4 -62.4 -2.457
15:29 1021 30.15 850 25.1 28.3 82.9 20 3.2 37.8 -62.27 -2.452
15:30 1021 30.15 850 25.1 28.3 82.9 24 5.9 42.7 -62.15 -2.447
15:31 1020 30.12 850 25.1 28.4 83.1 24 6.1 42.9 -62.02 -2.442
15:32 1020 30.12 850 25.1 28.4 83.1 20 3.8 38.8 -61.92 -2.438
15:33 1020 30.12 850 25.1 28.3 82.9 20 3.3 37.9 -61.84 -2.435
15:34 1020 30.12 850 25.1 28.2 82.7 20 3.6 38.5 -61.73 -2.43
15:35 1020 30.12 850 25.1 28.2 82.7 21 4.1 39.4 -61.63 -2.426
15:36 1020 30.12 850 25.1 28.2 82.8 18 2.3 36.1 -61.51 -2.422
15:37 1020 30.12 850 25.1 28.4 83 21 4.1 39.4 -61.4 -2.417
15:38 1020 30.12 850 25.1 28.5 83.2 21 4.5 40.1 -61.26 -2.412
15:39 1020 30.12 850 25.1 28.6 83.5 23 5.5 41.9 -61.12 -2.406
15:40 1020 30.12 850 25.1 28.8 83.8 20 3.8 38.8 -61.01 -2.402
15:41 1020 30.12 850 25.1 28.9 83.9 22 5.3 41.5 -61.07 -2.404
15:42 1020 30.12 850 25.1 28.8 83.8 22 5.3 41.5 -60.9 -2.398
15:43 1020 30.12 850 25.1 28.6 83.5 22 5.4 41.7 -60.78 -2.393
15:44 1020 30.12 850 25.1 28.5 83.2 22 5.3 41.5 -60.65 -2.388
15:45 1020 30.12 850 25.1 28.4 83.1 23 5.9 42.6 -60.5 -2.382
15:46 1020 30.12 850 25.1 28.4 83.1 20 3.6 38.4 -60.36 -2.376
15:47 1020 30.12 850 25.1 28.4 83 24 6.3 43.3 -60.24 -2.372
15:48 1020 30.12 850 25.1 28.2 82.8 23 5.7 42.3 -60.13 -2.367
15:49 1020 30.12 850 25.1 28.2 82.7 20 3.4 38.1 -60.02 -2.363
15:50 1020 30.12 850 25.1 28.1 82.6 22 4.5 40.1 -59.88 -2.357
15:51 1020 30.12 850 25.1 28.3 82.9 26 7.4 45.3 -59.72 -2.351
15:52 1020 30.12 850 25.1 28.3 82.9 19 2.5 36.4 -59.62 -2.347
15:53 1020 30.12 849 25.07 28.3 82.9 25 6.4 43.5 -59.51 -2.343
15:54 1020 30.12 849 25.07 28.3 82.9 22 4.9 40.8 -59.41 -2.339
15:55 1020 30.12 849 25.07 28.2 82.8 24 5.8 42.4 -59.32 -2.335
15:56 1020 30.12 849 25.07 28.2 82.8 24 6.1 43.1 -59.22 -2.331
15:57 1020 30.12 849 25.07 28.2 82.7 24 5.8 42.5 -59.13 -2.328
15:58 1020 30.12 849 25.07 28.1 82.5 21 4 39.2 -59.03 -2.324
15:59 1020 30.12 849 25.07 28 82.5 22 4.3 39.8 -58.9 -2.319
16:00 1020 30.12 849 25.07 28 82.3 18 1.8 35.2 -58.82 -2.316
16:01 1020 30.12 849 25.07 28 82.3 21 3.6 38.4 -58.7 -2.311
16:02 1020 30.12 849 25.07 28.2 82.7 21 4.1 39.4 -58.56 -2.306
16:03 1020 30.12 849 25.07 28.3 82.9 22 4.6 40.3 -58.43 -2.3
16:04 1020 30.12 849 25.07 28.5 83.2 25 7 44.6 -58.35 -2.297
16:05 1020 30.12 849 25.07 28.6 83.4 23 6 42.7 -58.26 -2.294
16:06 1020 30.12 849 25.07 28.6 83.4 21 4.6 40.2 -58.17 -2.29
16:07 1020 30.12 849 25.07 28.4 83.1 20 3.4 38.1 -58.11 -2.288
16:08 1020 30.12 849 25.07 28.2 82.7 24 5.8 42.4 -58.03 -2.285
16:09 1020 30.12 849 25.07 28.2 82.7 25 6.6 43.9 -57.92 -2.28
16:10 1020 30.12 849 25.07 28.3 82.9 21 4.4 40 -57.82 -2.276
16:11 1020 30.12 849 25.07 28.3 83 23 5.8 42.5 -57.74 -2.273
16:12 1020 30.12 849 25.07 28.4 83.1 23 5.9 42.6 -57.67 -2.27
16:13 1020 30.12 849 25.07 28.5 83.3 24 6.1 43 -57.54 -2.265
16:14 1020 30.12 849 25.07 28.6 83.5 18 2.4 36.3 -57.45 -2.262
16:15 1020 30.12 849 25.07 28.7 83.7 14 -1.3 29.7 -57.4 -2.26
16:16 1020 30.12 849 25.07 28.7 83.7 14 -0.6 30.9 -57.33 -2.257
16:17 1020 30.12 849 25.07 28.8 83.8 16 0.6 33 -57.23 -2.253
16:18 1020 30.12 849 25.07 28.8 83.8 17 1.6 35 -57.19 -2.252
16:19 1020 30.12 849 25.07 28.8 83.8 14 -1 30.3 -57.13 -2.249
16:20 1020 30.12 849 25.07 28.8 83.9 19 3.3 38 -57.22 -2.253
16:21 1020 30.12 849 25.07 28.9 84.1 14 -0.8 30.6 -57.02 -2.245
16:22 1020 30.12 849 25.07 28.9 84 16 0.6 33.1 -56.9 -2.24
16:23 1020 30.12 849 25.07 28.9 83.9 14 -0.6 30.8 -56.81 -2.237
16:24 1020 30.12 849 25.07 28.9 83.9 18 2.2 35.9 -56.77 -2.235
16:25 1020 30.12 849 25.07 28.9 83.9 18 2.3 36.2 -56.69 -2.232
16:26 1020 30.12 849 25.07 28.9 84 20 4.1 39.3 -56.6 -2.228
16:27 1020 30.12 849 25.07 28.9 84.1 20 4 39.1 -56.51 -2.225
16:28 1020 30.12 849 25.07 29 84.1 16 1.1 34 -56.45 -2.222
16:29 1020 30.12 849 25.07 29 84.1 16 1.3 34.3 -56.42 -2.221
16:30 1020 30.12 849 25.07 28.9 84 19 3 37.5 -56.38 -2.22
16:31 1020 30.12 849 25.07 28.9 84 14 -0.8 30.6 -56.32 -2.217
16:32 1020 30.12 849 25.07 28.9 84 19 3 37.5 -56.26 -2.215
16:33 1020 30.12 849 25.07 29 84.1 16 1.1 33.9 -56.21 -2.213
16:34 1020 30.12 849 25.07 29 84.2 21 4.8 40.6 -56.14 -2.21
16:35 1020 30.12 849 25.07 29.1 84.3 20 4.2 39.5 -56.1 -2.209
16:36 1020 30.12 849 25.07 29.1 84.4 14 -0.3 31.4 -56.07 -2.207
16:37 1020 30.12 849 25.07 29.1 84.4 18 3.1 37.6 -56.06 -2.207
16:38 1020 30.12 849 25.07 29.1 84.3 17 2.2 36 -56.05 -2.207
16:39 1020 30.12 849 25.07 29.1 84.3 15 -0.2 31.7 -56 -2.205
16:40 1020 30.12 849 25.07 29.1 84.3 16 0.9 33.7 -55.9 -2.201
16:41 1020 30.12 849 25.07 29.1 84.4 17 2 35.6 -55.81 -2.197
16:42 1020 30.12 849 25.07 29.1 84.5 15 0 32 -55.78 -2.196
16:43 1020 30.12 849 25.07 29.1 84.4 18 2.7 36.9 -55.75 -2.195
16:44 1020 30.12 849 25.07 29.1 84.4 18 2.4 36.4 -55.72 -2.194
16:45 1020 30.12 849 25.07 29.1 84.3 16 1.1 34 -55.67 -2.192
16:46 1020 30.12 849 25.07 29 84.2 15 -0.2 31.6 -55.62 -2.19
16:47 1020 30.12 849 25.07 29 84.2 19 3.3 37.9 -55.65 -2.191
16:48 1020 30.12 849 25.07 29.1 84.3 17 2.1 35.8 -55.56 -2.187
16:49 1020 30.12 849 25.07 29 84.2 18 2.7 36.9 -55.49 -2.185
16:50 1020 30.12 849 25.07 29 84.1 19 3.1 37.5 -55.44 -2.183
16:51 1020 30.12 849 25.07 28.9 84 18 2.4 36.4 -55.43 -2.182
16:52 1020 30.12 849 25.07 28.8 83.9 17 2 35.6 -55.39 -2.181
16:53 1020 30.12 849 25.07 28.9 84 17 1.4 34.6 -55.34 -2.179
16:54 1020 30.12 849 25.07 28.9 84 17 1.7 35 -55.31 -2.178
16:55 1020 30.12 849 25.07 28.9 84 21 4.5 40 -55.28 -2.176
16:56 1020 30.12 849 25.07 28.9 84.1 18 2.2 36 -55.49 -2.185
16:57 1020 30.12 849 25.07 28.9 84 20 4.3 39.7 -55.26 -2.176
16:58 1020 30.12 849 25.07 28.9 84.1 20 3.7 38.6 -55.15 -2.171
16:59 1020 30.12 849 25.07 28.9 84 16 1.1 34 -55.13 -2.17
17:00 1020 30.12 849 25.07 28.8 83.9 17 1.3 34.3 -55.09 -2.169
17:01 1020 30.12 849 25.07 28.8 83.9 18 2.2 35.9 -55.09 -2.169
17:02 1020 30.12 849 25.07 28.9 84 18 2.3 36.1 -55.1 -2.169
17:03 1020 30.12 849 25.07 28.9 84 15 0.1 32.2 -55.06 -2.168
17:04 1020 30.12 849 25.07 28.9 84.1 19 3.5 38.3 -55.05 -2.167
17:05 1020 30.12 849 25.07 29 84.1 17 2 35.7 -55.03 -2.167
17:06 1020 30.12 849 25.07 28.9 84 20 4.2 39.5 -54.99 -2.165
17:07 1020 30.12 849 25.07 28.9 84 22 5.1 41.2 -54.94 -2.163
17:08 1020 30.12 849 25.07 29 84.1 18 2.9 37.3 -54.93 -2.163
17:09 1020 30.12 849 25.07 29 84.2 16 1.1 33.9 -54.96 -2.164
17:10 1020 30.12 849 25.07 28.9 84 17 2 35.6 -54.96 -2.164
17:11 1020 30.12 849 25.07 28.9 84.1 17 2 35.6 -54.95 -2.163
17:12 1020 30.12 849 25.07 28.9 84 18 2.7 36.8 -54.92 -2.162
17:13 1020 30.12 849 25.07 29 84.1 20 3.9 39.1 -54.92 -2.162
17:14 1020 30.12 849 25.07 29.1 84.4 18 2.3 36.2 -54.97 -2.164
17:15 1020 30.12 849 25.07 29.1 84.4 15 -0.1 31.8 -54.97 -2.164
17:16 1020 30.12 849 25.07 29.2 84.5 16 1 33.7 -54.89 -2.161
17:17 1020 30.12 849 25.07 29.1 84.4 15 0.5 32.9 -54.87 -2.16
17:18 1020 30.12 849 25.07 29 84.3 18 2.3 36.1 -54.86 -2.16
17:19 1020 30.12 849 25.07 28.9 84.1 16 1.3 34.4 -54.86 -2.16
17:20 1020 30.12 849 25.07 28.9 83.9 17 1.9 35.5 -54.86 -2.16
17:21 1020 30.12 849 25.07 28.8 83.9 21 4.7 40.5 -54.83 -2.159
17:22 1020 30.12 849 25.07 28.9 84 21 4.9 40.8 -54.8 -2.157
17:23 1020 30.12 849 25.07 28.9 84.1 17 1.8 35.3 -54.79 -2.157
17:24 1020 30.12 849 25.07 28.9 84.1 16 1.3 34.3 -54.79 -2.157
17:25 1020 30.12 849 25.07 28.9 84.1 19 3.5 38.3 -54.79 -2.157
17:26 1020 30.12 849 25.07 28.9 84 18 2.2 35.9 -54.79 -2.157
17:27 1020 30.12 849 25.07 28.9 84 17 2.1 35.8 -54.78 -2.157
17:28 1020 30.12 849 25.07 28.8 83.9 19 3.4 38.1 -54.76 -2.156
17:29 1020 30.12 849 25.07 28.8 83.9 18 2.1 35.7 -54.79 -2.157
17:30 1020 30.12 849 25.07 28.8 83.9 19 3.4 38.1 -54.78 -2.157
17:31 1020 30.12 849 25.07 28.8 83.8 21 4.4 39.8 -54.75 -2.156
17:32 1020 30.12 849 25.07 28.8 83.8 19 3 37.4 -54.73 -2.155
17:33 1020 30.12 849 25.07 28.8 83.8 16 0.5 32.9 -54.74 -2.155
17:34 1020 30.12 849 25.07 28.8 83.8 15 -0.4 31.3 -54.76 -2.156
17:35 1020 30.12 849 25.07 28.8 83.9 18 2.5 36.5 -54.75 -2.156
17:36 1020 30.12 849 25.07 28.9 84 19 3 37.3 -54.73 -2.155
17:37 1020 30.12 849 25.07 28.9 84.1 17 1.7 35.1 -54.73 -2.155
17:38 1020 30.12 849 25.07 28.8 83.9 18 2.7 36.8 -54.74 -2.155
17:39 1020 30.12 849 25.07 28.8 83.8 22 5.5 41.9 -54.73 -2.155
17:40 1020 30.12 849 25.07 28.8 83.8 19 3 37.5 -54.74 -2.155
17:41 1020 30.12 849 25.07 28.7 83.7 18 2.8 37 -54.76 -2.156
17:42 1020 30.12 849 25.07 28.7 83.6 19 3.4 38.1 -54.77 -2.156
17:43 1020 30.12 849 25.07 28.6 83.5 19 2.8 37 -54.79 -2.157
17:44 1020 30.12 849 25.07 28.6 83.4 19 2.7 36.8 -54.78 -2.157
17:45 1020 30.12 849 25.07 28.7 83.6 18 2.1 35.8 -54.76 -2.156
17:46 1020 30.12 849 25.07 28.7 83.7 19 2.9 37.2 -54.77 -2.156
17:47 1020 30.12 849 25.07 28.8 83.9 19 3 37.4 -54.73 -2.155
17:48 1020 30.12 849 25.07 28.9 84 17 1.7 35 -54.76 -2.156
17:49 1020 30.12 849 25.07 28.9 84 20 4 39.2 -54.79 -2.157
17:50 1020 30.12 849 25.07 28.9 84 22 5.4 41.7 -54.79 -2.157
17:51 1020 30.12 849 25.07 28.9 84 23 6 42.8 -54.79 -2.157
17:52 1020 30.12 849 25.07 28.9 84.1 19 3.3 38 -54.79 -2.157
17:53 1020 30.12 849 25.07 28.9 84 17 1.7 35.1 -54.83 -2.159
17:54 1019 30.09 849 25.07 28.9 83.9 17 1.4 34.6 -54.87 -2.16
17:55 1019 30.09 849 25.07 28.7 83.7 17 1.8 35.3 -54.9 -2.161
17:56 1019 30.09 849 25.07 28.7 83.7 17 1.4 34.5 -54.86 -2.16
17:57 1019 30.09 849 25.07 28.8 83.8 18 2.1 35.7 -54.86 -2.16
17:58 1019 30.09 849 25.07 28.8 83.8 18 2.4 36.3 -54.87 -2.16
17:59 1019 30.09 849 25.07 28.8 83.8 16 1.1 34.1 -54.91 -2.162
18:00 1019 30.09 849 25.07 28.8 83.8 21 4.3 39.7 -54.93 -2.163
18:01 1019 30.09 849 25.07 28.7 83.7 19 2.9 37.3 -54.92 -2.162
18:02 1019 30.09 849 25.07 28.8 83.8 17 1.8 35.2 -54.91 -2.162
18:03 1019 30.09 849 25.07 28.9 84 16 0.7 33.3 -54.93 -2.163
18:04 1019 30.09 849 25.07 29 84.1 16 0.8 33.5 -54.94 -2.163
18:05 1019 30.09 849 25.07 29 84.2 17 1.8 35.3 -54.96 -2.164
18:06 1019 30.09 849 25.07 29 84.2 17 1.5 34.6 -55 -2.165
18:07 1019 30.09 849 25.07 28.9 84 15 -0.2 31.6 -54.99 -2.165
18:08 1019 30.09 849 25.07 28.8 83.9 19 3.4 38.2 -55.02 -2.166
18:09 1019 30.09 849 25.07 28.8 83.8 21 4.3 39.8 -55.03 -2.167
18:10 1019 30.09 849 25.07 28.7 83.6 20 3.8 38.9 -55.06 -2.168
18:11 1020 30.12 849 25.07 28.7 83.6 18 2.6 36.6 -55.08 -2.169
18:12 1019 30.09 849 25.07 28.7 83.7 24 6.6 43.8 -55.09 -2.169
18:13 1019 30.09 849 25.07 28.8 83.8 14 -0.7 30.8 -55.1 -2.169
18:14 1019 30.09 849 25.07 28.9 83.9 21 4.6 40.2 -55.13 -2.17
18:15 1019 30.09 849 25.07 29 84.1 18 2.9 37.2 -55.15 -2.171
18:16 1019 30.09 849 25.07 28.9 84 20 4.3 39.8 -55.21 -2.174
18:17 1019 30.09 849 25.07 28.8 83.8 22 5.5 42 -55.24 -2.175
18:18 1019 30.09 849 25.07 28.7 83.6 19 2.9 37.2 -55.28 -2.176
18:19 1019 30.09 849 25.07 28.7 83.6 22 4.9 40.9 -55.34 -2.179
18:20 1019 30.09 849 25.07 28.7 83.6 19 3.3 38 -55.41 -2.181
18:21 1019 30.09 849 25.07 28.7 83.6 23 5.7 42.3 -55.49 -2.185
18:22 1019 30.09 849 25.07 28.7 83.6 20 3.5 38.3 -55.54 -2.187
18:23 1019 30.09 849 25.07 28.7 83.6 23 6 42.8 -55.63 -2.19
18:24 1019 30.09 849 25.07 28.6 83.5 21 4.3 39.8 -55.65 -2.191
18:25 1019 30.09 849 25.07 28.7 83.6 21 4.5 40 -55.68 -2.192
18:26 1019 30.09 849 25.07 28.7 83.6 21 4.2 39.5 -55.74 -2.194
18:27 1019 30.09 849 25.07 28.7 83.7 19 3.4 38.1 -55.78 -2.196
18:28 1019 30.09 849 25.07 28.7 83.7 21 4.7 40.4 -55.88 -2.2
18:29 1019 30.09 849 25.07 28.7 83.6 19 3.1 37.5 -55.96 -2.203
18:30 1019 30.09 849 25.07 28.7 83.7 19 3.4 38.2 -56.02 -2.206
18:31 1019 30.09 849 25.07 28.6 83.6 22 5.2 41.3 -56.09 -2.208
18:32 1019 30.09 849 25.07 28.5 83.4 23 5.7 42.3 -56.15 -2.211
18:33 1019 30.09 849 25.07 28.4 83.2 23 5.6 42 -56.22 -2.213
18:34 1019 30.09 849 25.07 28.3 83 24 6.2 43.2 -56.3 -2.217
18:35 1019 30.09 849 25.07 28.3 82.9 22 5.1 41.1 -56.35 -2.219
18:36 1019 30.09 849 25.07 28.3 82.9 21 4.5 40.1 -56.41 -2.221
18:37 1019 30.09 849 25.07 28.3 82.9 22 4.7 40.5 -56.48 -2.224
18:38 1019 30.09 849 25.07 28.2 82.7 17 1.4 34.5 -56.55 -2.226
18:39 1020 30.12 849 25.07 28.2 82.7 19 2.7 36.9 -56.64 -2.23
18:40 1020 30.12 849 25.07 28.1 82.7 19 2.8 37 -56.71 -2.233
18:41 1020 30.12 849 25.07 28.2 82.7 23 5.5 41.9 -56.75 -2.234
18:42 1020 30.12 849 25.07 28.2 82.8 22 4.5 40.1 -56.82 -2.237
18:43 1020 30.12 849 25.07 28.2 82.7 23 5.4 41.6 -56.9 -2.24
18:44 1020 30.12 849 25.07 28.2 82.8 19 2.7 36.9 -56.98 -2.243
18:45 1019 30.09 849 25.07 28.3 82.9 23 5.8 42.4 -57.03 -2.245
18:46 1020 30.12 849 25.07 28.3 82.9 19 2.7 36.8 -57.11 -2.248
18:47 1020 30.12 849 25.07 28.3 82.9 22 4.8 40.6 -57.2 -2.252
18:48 1020 30.12 849 25.07 28.2 82.7 24 5.9 42.6 -57.27 -2.255
18:49 1020 30.12 849 25.07 28.2 82.7 22 4.7 40.5 -57.32 -2.257
18:50 1020 30.12 849 25.07 28.2 82.7 19 2.3 36.2 -57.39 -2.259
18:51 1020 30.12 849 25.07 28.3 82.9 17 0.9 33.6 -57.49 -2.263
18:52 1020 30.12 849 25.07 28.4 83.1 17 1.3 34.3 -57.55 -2.266
18:53 1020 30.12 849 25.07 28.3 82.9 20 3.2 37.7 -57.61 -2.268
18:54 1020 30.12 849 25.07 28.2 82.8 16 0.7 33.2 -57.71 -2.272
18:55 1020 30.12 849 25.07 28.2 82.7 19 2.8 37 -57.8 -2.276
18:56 1020 30.12 849 25.07 28.1 82.5 21 4.3 39.8 -57.86 -2.278
18:57 1020 30.12 849 25.07 28 82.3 19 2.8 37 -57.96 -2.282
18:58 1020 30.12 849 25.07 27.9 82.1 16 0.2 32.3 -58.06 -2.286
18:59 1020 30.12 849 25.07 28 82.5 17 1.3 34.3 -58.14 -2.289
19:00 1020 30.12 849 25.07 28.2 82.7 19 2.5 36.5 -58.2 -2.291
19:01 1020 30.12 849 25.07 28.3 82.9 21 4.2 39.5 -58.25 -2.293
19:02 1020 30.12 849 25.07 28.4 83.1 21 4 39.2 -58.32 -2.296
19:03 1020 30.12 849 25.07 28.3 83 24 6 42.8 -58.42 -2.3
19:04 1020 30.12 849 25.07 28.3 82.9 23 5.7 42.3 -58.51 -2.304
19:05 1020 30.12 849 25.07 28.1 82.5 20 3.4 38.1 -58.62 -2.308
19:06 1020 30.12 849 25.07 28 82.4 21 4.3 39.7 -58.73 -2.312
19:07 1020 30.12 849 25.07 27.9 82.2 22 4.4 40 -58.82 -2.316
19:08 1020 30.12 849 25.07 27.7 81.9 17 0.4 32.8 -58.9 -2.319
19:09 1020 30.12 849 25.07 27.7 81.9 22 4.5 40.1 -58.99 -2.322
19:10 1020 30.12 849 25.07 27.7 81.8 21 4 39.1 -59.1 -2.327
19:11 1020 30.12 849 25.07 27.6 81.7 25 6.3 43.4 -59.2 -2.331
19:12 1020 30.12 849 25.07 27.5 81.6 22 4.5 40.1 -59.28 -2.334
19:13 1020 30.12 849 25.07 27.5 81.4 23 4.5 40.2 -59.39 -2.338
19:14 1020 30.12 849 25.07 27.4 81.3 20 2.8 37.1 -59.47 -2.341
19:15 1020 30.12 849 25.07 27.3 81.2 21 3.1 37.6 -59.58 -2.346
19:16 1020 30.12 849 25.07 27.2 81 20 2.7 36.9 -59.7 -2.35
19:17 1020 30.12 849 25.07 27.1 80.7 20 2.7 36.8 -59.8 -2.354
19:18 1020 30.12 849 25.07 26.9 80.4 22 3.5 38.2 -59.91 -2.359
19:19 1020 30.12 849 25.07 26.8 80.2 19 1.5 34.6 -60.03 -2.363
19:20 1020 30.12 849 25.07 26.7 80 22 3.8 38.8 -60.14 -2.368
19:21 1020 30.12 849 25.07 26.6 79.9 20 1.9 35.4 -60.26 -2.372
19:22 1020 30.12 849 25.07 26.6 80 18 0.6 33.1 -60.38 -2.377
19:23 1020 30.12 849 25.07 26.7 80 22 3.4 38.1 -60.5 -2.382
19:24 1020 30.12 849 25.07 26.7 80 19 1.1 34 -60.63 -2.387
19:25 1020 30.12 849 25.07 26.6 79.9 21 2.5 36.5 -60.76 -2.392
19:26 1020 30.12 849 25.07 26.6 79.9 20 2 35.6 -60.9 -2.398
19:27 1020 30.12 849 25.07 26.6 80 19 1.4 34.5 -61.03 -2.403
19:28 1020 30.12 849 25.07 26.7 80 21 2.7 36.8 -61.17 -2.408
19:29 1020 30.12 849 25.07 26.6 79.8 20 2.4 36.3 -61.31 -2.414
19:30 1020 30.12 849 25.07 26.5 79.8 21 2.4 36.4 -61.46 -2.42
19:31 1020 30.12 849 25.07 26.5 79.6 20 2.2 36 -61.61 -2.426
19:32 1020 30.12 849 25.07 26.4 79.5 21 2.6 36.7 -61.74 -2.431
19:33 1020 30.12 849 25.07 26.3 79.4 21 2.8 37 -61.86 -2.435
19:34 1020 30.12 849 25.07 26.2 79.2 23 3.7 38.6 -61.99 -2.441
19:35 1020 30.12 849 25.07 26.1 79 25 4.6 40.2 -62.15 -2.447
19:36 1020 30.12 849 25.07 25.9 78.7 26 5.4 41.8 -62.3 -2.453
19:37 1020 30.12 849 25.07 25.7 78.3 27 5.4 41.8 -62.44 -2.458
19:38 1020 30.12 849 25.07 25.6 78.1 24 3.9 39 -62.57 -2.463
19:39 1020 30.12 849 25.07 25.6 78.2 27 5.4 41.6 -62.71 -2.469
19:40 1020 30.12 849 25.07 25.7 78.3 27 5.4 41.7 -62.85 -2.474
19:41 1020 30.12 849 25.07 25.8 78.4 27 5.3 41.6 -62.98 -2.48
19:42 1020 30.12 849 25.07 25.7 78.3 25 4.7 40.4 -63.11 -2.485
19:43 1020 30.12 849 25.07 25.8 78.4 22 3 37.3 -63.25 -2.49
19:44 1020 30.12 849 25.07 25.9 78.5 24 4 39.3 -63.38 -2.495
19:45 1020 30.12 849 25.07 25.9 78.7 25 4.8 40.6 -63.52 -2.501
19:46 1020 30.12 849 25.07 25.9 78.7 26 5.2 41.4 -63.66 -2.506
19:47 1020 30.12 849 25.07 25.9 78.5 24 4.1 39.4 -63.8 -2.512
19:48 1020 30.12 849 25.07 25.8 78.4 25 4.4 40 -63.93 -2.517
19:49 1020 30.12 849 25.07 25.8 78.4 26 5.1 41.1 -64.07 -2.522
19:50 1020 30.12 849 25.07 25.7 78.2 26 4.8 40.7 -64.2 -2.528
19:51 1020 30.12 849 25.07 25.7 78.2 26 5 41 -64.33 -2.533
19:52 1020 30.12 849 25.07 25.5 77.9 25 4.6 40.3 -64.47 -2.538
19:53 1020 30.12 849 25.07 25.4 77.8 25 4.5 40.1 -64.62 -2.544
19:54 1020 30.12 849 25.07 25.4 77.7 25 4.3 39.8 -64.76 -2.55
19:55 1020 30.12 849 25.07 25.4 77.6 27 5.2 41.4 -64.89 -2.555
19:56 1020 30.12 849 25.07 25.3 77.5 26 4.7 40.5 -65.03 -2.56
19:57 1020 30.12 849 25.07 25.2 77.4 25 4.3 39.8 -65.19 -2.567
19:58 1020 30.12 849 25.07 25.2 77.4 24 3.5 38.3 -65.33 -2.572
19:59 1020 30.12 849 25.07 25.3 77.5 22 2.4 36.4 -65.48 -2.578
20:00 1020 30.12 849 25.07 25.4 77.7 24 3.8 38.8 -65.63 -2.584
20:01 1020 30.12 849 25.07 25.4 77.7 26 4.6 40.3 -65.77 -2.589
20:02 1020 30.12 849 25.07 25.3 77.5 26 4.5 40.1 -65.91 -2.595
20:03 1020 30.12 849 25.07 25.1 77.2 23 2.9 37.2 -66.06 -2.601
20:04 1020 30.12 849 25.07 25.1 77.1 24 3.4 38.2 -66.2 -2.606
20:05 1020 30.12 849 25.07 25 77 25 3.9 38.9 -66.34 -2.612
20:06 1020 30.12 849 25.07 24.9 76.8 24 3.1 37.6 -66.5 -2.618
20:07 1020 30.12 849 25.07 24.8 76.7 24 3.2 37.7 -66.66 -2.624
20:08 1020 30.12 849 25.07 24.8 76.7 24 3.3 37.9 -66.8 -2.63
20:09 1020 30.12 849 25.07 24.8 76.7 25 3.5 38.3 -66.96 -2.636
20:10 1020 30.12 849 25.07 24.8 76.7 24 3.3 38 -67.1 -2.642
20:11 1020 30.12 849 25.07 24.8 76.6 24 3.4 38.1 -67.28 -2.649
20:12 1020 30.12 849 25.07 24.7 76.5 25 3.8 38.8 -67.43 -2.655
20:13 1020 30.12 849 25.07 24.6 76.2 26 4.3 39.7 -67.58 -2.661
20:14 1020 30.12 849 25.07 24.4 76 27 4.4 40 -67.74 -2.667
20:15 1020 30.12 849 25.07 24.2 75.6 26 4 39.2 -67.89 -2.673
20:16 1020 30.12 849 25.07 24.2 75.5 27 4.4 39.9 -68.04 -2.679
20:17 1020 30.12 849 25.07 24.1 75.3 27 4.4 39.9 -68.19 -2.685
20:18 1020 30.12 849 25.07 24 75.2 28 4.5 40.1 -68.34 -2.691
20:19 1020 30.12 849 25.07 24 75.1 29 4.8 40.7 -68.5 -2.697
20:20 1020 30.12 849 25.07 23.9 74.9 27 4 39.1 -68.66 -2.703
20:21 1020 30.12 849 25.07 23.8 74.8 28 4.3 39.7 -68.82 -2.709
20:22 1020 30.12 850 25.1 23.7 74.7 29 4.9 40.8 -68.99 -2.716
20:23 1020 30.12 849 25.07 23.6 74.4 32 6 42.7 -69.15 -2.722
20:24 1020 30.12 849 25.07 23.1 73.6 32 5.9 42.7 -69.3 -2.728
20:25 1020 30.12 850 25.1 22.8 73 31 4.9 40.7 -69.46 -2.735
20:26 1020 30.12 850 25.1 22.6 72.8 29 3.7 38.6 -69.62 -2.741
20:27 1020 30.12 850 25.1 22.8 73 30 4.6 40.3 -69.78 -2.747
20:28 1020 30.12 850 25.1 22.7 72.9 29 3.9 39 -69.96 -2.754
20:29 1020 30.12 850 25.1 22.7 72.9 29 3.9 39 -70.1 -2.76
20:30 1020 30.12 850 25.1 22.8 73.1 29 3.9 39 -70.3 -2.768
20:31 1020 30.12 849 25.07 22.9 73.2 26 2.6 36.7 -70.5 -2.776
20:32 1020 30.12 850 25.1 23.1 73.5 25 2.4 36.3 -70.6 -2.78
20:33 1020 30.12 850 25.1 23.2 73.8 27 3.4 38.1 -70.8 -2.787
20:34 1020 30.12 850 25.1 23.2 73.7 26 2.7 36.8 -71 -2.795
20:35 1020 30.12 850 25.1 23.2 73.7 25 2.4 36.4 -71.2 -2.803
20:36 1020 30.12 850 25.1 23.2 73.8 25 2.2 36 -71.3 -2.807
20:37 1020 30.12 850 25.1 23.3 73.9 25 2.5 36.5 -71.5 -2.815
20:38 1020 30.12 850 25.1 23.3 73.9 24 1.7 35.1 -71.7 -2.823
20:39 1020 30.12 850 25.1 23.4 74.2 24 2.1 35.7 -71.9 -2.831
20:40 1020 30.12 850 25.1 23.5 74.3 26 2.9 37.2 -72.1 -2.839
20:41 1020 30.12 850 25.1 23.4 74.1 24 2.1 35.7 -72.2 -2.843
20:42 1020 30.12 850 25.1 23.3 74 25 2.4 36.3 -72.4 -2.85
20:43 1020 30.12 850 25.1 23.2 73.7 26 3.1 37.6 -72.6 -2.858
20:44 1020 30.12 850 25.1 22.9 73.3 26 2.8 37 -72.8 -2.866
20:45 1020 30.12 850 25.1 22.7 72.9 26 2.3 36.1 -72.9 -2.87
20:46 1020 30.12 850 25.1 22.6 72.7 24 1.3 34.3 -73.1 -2.878
20:47 1020 30.12 850 25.1 22.7 72.8 26 2.5 36.4 -73.3 -2.886
20:48 1020 30.12 850 25.1 22.7 72.8 25 1.6 34.8 -73.5 -2.894
20:49 1020 30.12 850 25.1 22.7 72.8 23 0.8 33.5 -73.6 -2.898
20:50 1020 30.12 850 25.1 22.8 73 24 1.4 34.6 -73.8 -2.906
20:51 1020 30.12 850 25.1 22.8 73 23 1 33.8 -74 -2.913
20:52 1020 30.12 850 25.1 22.8 73 23 1.1 33.9 -74.1 -2.917
20:53 1020 30.12 850 25.1 22.8 73 24 1.2 34.2 -74.3 -2.925
20:54 1020 30.12 849 25.07 22.8 73 24 1.6 34.9 -74.5 -2.933
20:55 1020 30.12 849 25.07 22.7 72.8 25 2.1 35.7 -74.6 -2.937
20:56 1020 30.12 850 25.1 22.6 72.6 24 1.4 34.5 -74.8 -2.945
20:57 1020 30.12 850 25.1 22.5 72.5 25 1.6 34.8 -74.9 -2.949
20:58 1020 30.12 850 25.1 22.4 72.4 24 1.3 34.3 -75.1 -2.957
20:59 1020 30.12 850 25.1 22.4 72.3 25 1.8 35.2 -75.2 -2.961
21:00 1020 30.12 850 25.1 22.3 72.2 25 1.5 34.8 -75.4 -2.969
21:01 1020 30.12 850 25.1 22 71.6 29 3.6 38.4 -75.5 -2.972
21:02 1020 30.12 850 25.1 21.2 70.2 32 3.9 39 -75.7 -2.98
21:03 1020 30.12 850 25.1 20.3 68.5 37 5.4 41.6 -75.8 -2.984
21:04 1020 30.12 850 25.1 19.4 66.9 37 4.6 40.3 -75.9 -2.988
21:05 1021 30.15 850 25.1 18.8 65.9 36 3.7 38.7 -76 -2.992
21:06 1020 30.12 850 25.1 18.4 65.2 40 4.6 40.3 -76.2 -3
21:07 1021 30.15 850 25.1 18.1 64.5 43 5.4 41.7 -76.3 -3.004
21:08 1021 30.15 850 25.1 17.5 63.5 45 5.4 41.8 -76.4 -3.008
21:09 1021 30.15 850 25.1 16.9 62.5 46 5.3 41.6 -76.6 -3.016
21:10 1021 30.15 850 25.1 16.6 61.8 46 5.1 41.1 -76.7 -3.02
21:11 1021 30.15 850 25.1 16.4 61.5 46 4.9 40.8 -76.9 -3.028
21:12 1021 30.15 850 25.1 16.3 61.3 46 4.7 40.5 -77 -3.031
21:13 1021 30.15 850 25.1 16.3 61.3 46 4.7 40.4 -77.2 -3.039
21:14 1021 30.15 850 25.1 16.3 61.3 47 5 41.1 -77.4 -3.047
21:15 1021 30.15 850 25.1 16.1 61 46 4.5 40.1 -77.5 -3.051
21:16 1021 30.15 850 25.1 16.1 61 45 4.3 39.8 -77.7 -3.059
21:17 1021 30.15 850 25.1 16.2 61.2 44 4 39.1 -77.9 -3.067
21:18 1021 30.15 850 25.1 16.4 61.5 43 3.8 38.9 -78.1 -3.075
21:19 1021 30.15 850 25.1 16.5 61.7 44 4.2 39.5 -78.2 -3.079
21:20 1021 30.15 850 25.1 16.5 61.6 43 4 39.3 -78.4 -3.087
21:21 1021 30.15 850 25.1 16.3 61.4 42 3.6 38.5 -78.6 -3.094
21:22 1021 30.15 850 25.1 16.3 61.4 40 2.9 37.1 -78.7 -3.098
21:23 1021 30.15 850 25.1 16.5 61.7 40 2.8 37.1 -78.9 -3.106
21:24 1021 30.15 850 25.1 16.6 61.8 45 4.7 40.4 -79.1 -3.114
21:25 1021 30.15 850 25.1 16.1 61.1 42 3.4 38.1 -79.3 -3.122
21:26 1021 30.15 850 25.1 16.3 61.4 35 0.8 33.4 -79.4 -3.126
21:27 1021 30.15 850 25.1 16.9 62.3 37 2.3 36.1 -79.6 -3.134
21:28 1021 30.15 850 25.1 17.3 63.2 34 1.3 34.3 -79.7 -3.138
21:29 1021 30.15 850 25.1 17.7 63.9 34 2 35.5 -79.9 -3.146
21:30 1021 30.15 850 25.1 17.9 64.3 33 1.5 34.6 -80.1 -3.154
21:31 1021 30.15 850 25.1 18.1 64.6 34 2.3 36.2 -80.2 -3.157
21:32 1021 30.15 850 25.1 18 64.5 33 1.8 35.2 -80.3 -3.161
21:33 1021 30.15 850 25.1 18.1 64.6 33 1.8 35.2 -80.5 -3.169
21:34 1021 30.15 850 25.1 17.9 64.2 34 2.2 35.9 -80.6 -3.173
21:35 1021 30.15 850 25.1 17.6 63.8 35 2.1 35.9 -80.7 -3.177
21:36 1021 30.15 850 25.1 17.4 63.4 36 2.4 36.4 -80.8 -3.181
21:37 1021 30.15 850 25.1 17.2 63 36 2.3 36.1 -80.9 -3.185
21:38 1021 30.15 850 25.1 17.2 62.9 35 1.8 35.2 -81.1 -3.193
21:39 1021 30.15 850 25.1 17.2 63 38 2.8 37.1 -81.2 -3.197
21:40 1021 30.15 850 25.1 16.9 62.4 38 2.5 36.5 -81.3 -3.201
21:41 1021 30.15 850 25.1 16.8 62.2 39 3 37.4 -81.4 -3.205
21:42 1021 30.15 850 25.1 16.5 61.6 42 3.6 38.5 -81.5 -3.209
21:43 1021 30.15 850 25.1 16.1 60.9 44 4 39.2 -81.5 -3.209
21:44 1021 30.15 850 25.1 15.7 60.2 45 3.8 38.9 -81.6 -3.213
21:45 1021 30.15 850 25.1 15.5 59.9 45 3.7 38.6 -81.7 -3.217
21:46 1021 30.15 850 25.1 15.3 59.6 45 3.4 38.2 -81.8 -3.22
21:47 1021 30.15 850 25.1 15.3 59.5 44 3.3 37.9 -81.9 -3.224
21:48 1021 30.15 850 25.1 15.3 59.6 45 3.5 38.3 -82 -3.228
21:49 1021 30.15 850 25.1 15.3 59.6 45 3.4 38.2 -82.1 -3.232
21:50 1021 30.15 850 25.1 15.3 59.5 45 3.5 38.3 -82.1 -3.232
21:51 1021 30.15 850 25.1 15.3 59.5 46 3.7 38.7 -82.2 -3.236
21:52 1021 30.15 850 25.1 15.1 59.3 45 3.5 38.2 -82.3 -3.24
21:53 1021 30.15 850 25.1 15.2 59.3 44 3.2 37.8 -82.4 -3.244
21:54 1021 30.15 850 25.1 15.3 59.5 45 3.5 38.4 -82.5 -3.248
21:55 1021 30.15 850 25.1 15.2 59.4 46 3.7 38.6 -82.6 -3.252
21:56 1021 30.15 850 25.1 15.1 59.2 46 3.6 38.6 -82.6 -3.252
21:57 1021 30.15 850 25.1 15 59 45 3.4 38.1 -82.7 -3.256
21:58 1021 30.15 850 25.1 15 59.1 45 3.3 37.9 -82.8 -3.26
21:59 1021 30.15 850 25.1 15.1 59.2 45 3.2 37.8 -82.9 -3.264
22:00 1021 30.15 850 25.1 15.1 59.2 44 3.2 37.8 -82.9 -3.264
22:01 1021 30.15 850 25.1 15.1 59.2 44 3.2 37.8 -83 -3.268
22:02 1021 30.15 850 25.1 15.1 59.2 45 3.4 38.1 -83.1 -3.272
22:03 1021 30.15 850 25.1 15.1 59.1 45 3.4 38.1 -83.1 -3.272
22:04 1021 30.15 850 25.1 15 59 44 3 37.4 -83.2 -3.276
22:05 1021 30.15 850 25.1 15 59.1 43 2.7 36.8 -83.3 -3.28
22:06 1021 30.15 850 25.1 15.2 59.3 43 2.8 37.1 -83.3 -3.28
22:07 1021 30.15 850 25.1 15.2 59.4 43 2.7 36.8 -83.4 -3.283
22:08 1021 30.15 850 25.1 15.3 59.5 42 2.5 36.5 -83.5 -3.287
22:09 1021 30.15 850 25.1 15.4 59.7 41 2.3 36.1 -83.5 -3.287
22:10 1021 30.15 850 25.1 15.6 60 40 2.2 36 -83.6 -3.291
22:11 1021 30.15 850 25.1 15.7 60.3 39 2 35.6 -83.6 -3.291
22:12 1021 30.15 850 25.1 15.9 60.6 39 2.2 36 -83.7 -3.295
22:13 1021 30.15 850 25.1 15.9 60.6 40 2.5 36.5 -83.8 -3.299
22:14 1021 30.15 850 25.1 15.7 60.3 41 2.7 36.9 -83.8 -3.299
22:15 1021 30.15 850 25.1 15.6 60.1 41 2.6 36.7 -83.9 -3.303
22:16 1021 30.15 850 25.1 15.6 60.1 41 2.4 36.4 -83.9 -3.303
22:17 1021 30.15 850 25.1 15.6 60.1 41 2.6 36.6 -84 -3.307
22:18 1021 30.15 850 25.1 15.6 60.1 41 2.6 36.7 -84 -3.307
22:19 1021 30.15 850 25.1 15.5 60 43 3.1 37.6 -84.1 -3.311
22:20 1021 30.15 850 25.1 15.3 59.5 44 3.1 37.6 -84.1 -3.311
22:21 1021 30.15 850 25.1 15.2 59.3 43 2.6 36.7 -84.1 -3.311
22:22 1021 30.15 850 25.1 15.2 59.4 42 2.6 36.7 -84.2 -3.315
22:23 1021 30.15 850 25.1 15.2 59.4 42 2.3 36.2 -84.2 -3.315
22:24 1021 30.15 850 25.1 15.3 59.5 42 2.5 36.6 -84.3 -3.319
22:25 1021 30.15 850 25.1 15.3 59.5 43 3 37.4 -84.3 -3.319
22:26 1021 30.15 850 25.1 15.1 59.2 44 3 37.4 -84.3 -3.319
22:27 1021 30.15 850 25.1 14.9 58.9 45 3.2 37.8 -84.4 -3.323
22:28 1021 30.15 850 25.1 14.8 58.6 44 2.7 36.8 -84.4 -3.323
22:29 1021 30.15 850 25.1 14.8 58.7 43 2.5 36.6 -84.5 -3.327
22:30 1021 30.15 850 25.1 14.9 58.8 44 2.8 37.1 -84.5 -3.327
22:31 1021 30.15 850 25.1 14.8 58.6 45 3.1 37.6 -84.5 -3.327
22:32 1021 30.15 850 25.1 14.6 58.2 46 3.2 37.7 -84.6 -3.331
22:33 1021 30.15 850 25.1 14.5 58 45 2.8 37.1 -84.6 -3.331
22:34 1021 30.15 850 25.1 14.5 58.1 44 2.4 36.3 -84.7 -3.335
22:35 1021 30.15 850 25.1 14.7 58.5 42 2 35.7 -84.7 -3.335
22:36 1021 30.15 850 25.1 15 58.9 41 2 35.6 -84.7 -3.335
22:37 1021 30.15 850 25.1 15.2 59.3 41 2.2 36 -84.8 -3.339
22:38 1021 30.15 850 25.1 15.2 59.4 43 2.7 36.9 -84.8 -3.339
22:39 1021 30.15 850 25.1 15.1 59.1 44 3 37.4 -84.8 -3.339
22:40 1021 30.15 850 25.1 14.9 58.7 45 3 37.4 -84.9 -3.343
22:41 1021 30.15 850 25.1 14.7 58.5 45 3 37.3 -84.9 -3.343
22:42 1021 30.15 850 25.1 14.6 58.2 46 3.1 37.7 -84.9 -3.343
22:43 1021 30.15 850 25.1 14.4 58 46 3.1 37.5 -85 -3.346
22:44 1021 30.15 850 25.1 14.3 57.8 47 3.2 37.8 -85 -3.346
22:45 1021 30.15 850 25.1 14.1 57.5 48 3.3 37.9 -85 -3.346
22:46 1021 30.15 850 25.1 14 57.2 49 3.4 38.1 -85.1 -3.35
22:47 1021 30.15 850 25.1 13.8 56.9 49 3.3 37.9 -85.1 -3.35
22:48 1021 30.15 850 25.1 13.8 56.8 49 3.2 37.7 -85.1 -3.35
22:49 1021 30.15 850 25.1 13.8 56.8 48 3.1 37.6 -85.2 -3.354
22:50 1021 30.15 850 25.1 13.7 56.7 50 3.7 38.6 -85.2 -3.354
22:51 1021 30.15 850 25.1 13.5 56.2 51 3.5 38.3 -85.2 -3.354
22:52 1021 30.15 850 25.1 13.3 55.9 52 3.6 38.4 -85.3 -3.358
22:53 1021 30.15 851 25.13 13.2 55.7 52 3.6 38.5 -85.3 -3.358
22:54 1021 30.15 850 25.1 13.2 55.7 52 3.6 38.5 -85.3 -3.358
22:55 1021 30.15 850 25.1 13.1 55.6 52 3.6 38.5 -85.3 -3.358
22:56 1021 30.15 850 25.1 13.1 55.6 52 3.6 38.4 -85.4 -3.362
22:57 1021 30.15 850 25.1 13.1 55.6 52 3.4 38.2 -85.4 -3.362
22:58 1021 30.15 850 25.1 13.2 55.7 52 3.5 38.3 -85.4 -3.362
22:59 1021 30.15 851 25.13 13.1 55.6 51 3.4 38.1 -85.5 -3.366
23:00 1021 30.15 851 25.13 13.1 55.5 51 3.2 37.8 -85.5 -3.366
23:01 1021 30.15 851 25.13 13.1 55.5 52 3.4 38.1 -85.5 -3.366
23:02 1021 30.15 851 25.13 13 55.5 52 3.4 38.1 -85.6 -3.37
23:03 1021 30.15 851 25.13 13 55.5 51 3.3 37.9 -85.6 -3.37
23:04 1021 30.15 851 25.13 13.1 55.6 51 3.4 38 -85.6 -3.37
23:05 1021 30.15 851 25.13 13.2 55.7 51 3.4 38.1 -85.6 -3.37
23:06 1021 30.15 851 25.13 13.2 55.7 50 3.1 37.6 -85.7 -3.374
23:07 1021 30.15 851 25.13 13.2 55.8 50 3.2 37.8 -85.7 -3.374
23:08 1021 30.15 851 25.13 13.3 55.9 50 3.3 37.9 -85.7 -3.374
23:09 1021 30.15 851 25.13 13.3 55.9 51 3.3 38 -85.8 -3.378
23:10 1021 30.15 851 25.13 13.2 55.8 51 3.3 37.9 -85.8 -3.378
23:11 1021 30.15 851 25.13 13.2 55.7 51 3.2 37.8 -85.8 -3.378
23:12 1021 30.15 851 25.13 13.1 55.7 51 3.2 37.8 -85.8 -3.378
23:13 1021 30.15 851 25.13 13.1 55.6 51 3.3 38 -85.9 -3.382
23:14 1021 30.15 851 25.13 13 55.5 51 3.3 37.9 -85.9 -3.382
23:15 1021 30.15 851 25.13 13.1 55.5 51 3.2 37.7 -85.9 -3.382
23:16 1021 30.15 851 25.13 13.1 55.5 51 3.1 37.6 -85.9 -3.382
23:17 1021 30.15 851 25.13 13.1 55.5 51 3.2 37.7 -86 -3.386
23:18 1021 30.15 851 25.13 13.1 55.5 51 3.2 37.7 -86 -3.386
23:19 1021 30.15 851 25.13 13 55.5 50 2.9 37.3 -86 -3.386
23:20 1021 30.15 851 25.13 13.1 55.5 50 2.9 37.2 -86.1 -3.39
23:21 1021 30.15 851 25.13 13.1 55.6 49 2.8 37.1 -86.1 -3.39
23:22 1021 30.15 851 25.13 13.2 55.7 49 2.9 37.2 -86.1 -3.39
23:23 1021 30.15 851 25.13 13.2 55.7 50 3 37.5 -86.1 -3.39
23:24 1022 30.18 851 25.13 13.1 55.7 50 3 37.4 -86.1 -3.39
23:25 1021 30.15 851 25.13 13.1 55.5 50 3 37.3 -86.2 -3.394
23:26 1022 30.18 851 25.13 13 55.4 50 2.9 37.2 -86.2 -3.394
23:27 1022 30.18 851 25.13 13 55.4 50 2.9 37.2 -86.2 -3.394
23:28 1022 30.18 851 25.13 13 55.5 50 2.8 37.1 -86.3 -3.398
23:29 1022 30.18 851 25.13 13 55.5 49 2.7 36.8 -86.3 -3.398
23:30 1022 30.18 851 25.13 13.1 55.6 49 2.8 37 -86.3 -3.398
23:31 1022 30.18 851 25.13 13.1 55.6 50 3 37.4 -86.3 -3.398
23:32 1022 30.18 851 25.13 13.1 55.6 50 3.1 37.5 -86.4 -3.402
23:33 1022 30.18 851 25.13 13.1 55.5 51 3.3 37.9 -86.4 -3.402
23:34 1022 30.18 851 25.13 12.9 55.3 52 3.3 37.9 -86.4 -3.402
23:35 1022 30.18 851 25.13 12.8 55.1 50 2.8 37.1 -86.4 -3.402
23:36 1022 30.18 851 25.13 12.8 55.1 50 2.7 36.8 -86.5 -3.406
23:37 1022 30.18 851 25.13 12.9 55.1 49 2.4 36.4 -86.5 -3.406
23:38 1022 30.18 851 25.13 12.9 55.2 49 2.6 36.7 -86.5 -3.406
23:39 1022 30.18 851 25.13 12.9 55.2 50 2.8 37 -86.6 -3.409
23:40 1022 30.18 851 25.13 12.9 55.3 50 2.8 37.1 -86.6 -3.409
23:41 1022 30.18 851 25.13 12.9 55.2 50 2.8 37 -86.6 -3.409
23:42 1022 30.18 851 25.13 13 55.3 48 2.2 35.9 -86.6 -3.409
23:43 1022 30.18 851 25.13 13.2 55.7 47 2.2 36 -86.6 -3.409
23:44 1022 30.18 851 25.13 13.4 56.2 45 1.9 35.5 -86.7 -3.413
23:45 1022 30.18 851 25.13 13.8 56.8 44 1.7 35.1 -86.7 -3.413
23:46 1022 30.18 851 25.13 14.1 57.3 42 1.4 34.6 -86.7 -3.413
23:47 1022 30.18 851 25.13 14.3 57.8 42 1.6 34.9 -86.7 -3.413
23:48 1022 30.18 851 25.13 14.4 57.9 47 3.3 38 -86.7 -3.413
23:49 1022 30.18 851 25.13 13.9 57 48 3.3 37.9 -86.7 -3.413
23:50 1022 30.18 851 25.13 13.5 56.2 48 2.9 37.2 -86.8 -3.417
23:51 1022 30.18 851 25.13 13.5 56.2 39 -0.2 31.6 -86.8 -3.417
23:52 1022 30.18 851 25.13 14.3 57.8 39 0.6 33.1 -86.8 -3.417
23:53 1022 30.18 851 25.13 14.9 58.8 39 1.1 33.9 -86.8 -3.417
23:54 1022 30.18 851 25.13 15 59.1 40 1.5 34.6 -86.8 -3.417
23:55 1022 30.18 851 25.13 15.1 59.3 38 1.2 34.1 -86.9 -3.421
23:56 1022 30.18 851 25.13 15.3 59.5 38 1 33.8 -86.9 -3.421
23:57 1022 30.18 851 25.13 15.3 59.5 39 1.4 34.5 -86.9 -3.421
23:58 1022 30.18 851 25.13 15.2 59.4 38 1 33.8 -86.9 -3.421
23:59 1022 30.18 851 25.13 15.2 59.4 37 0.9 33.6 -86.9 -3.421
24:00 1022 30.18 851 25.13 15.3 59.5 39 1.5 34.7 -86.9 -3.421